<?xml version="1.0" encoding="UTF-8" standalone="no" ?>
<gpx xmlns="http://www.topografix.com/GPX/1/1" xmlns:xsi="http://www.w3.org/2001/XMLSchema-instance" xsi:schemaLocation="http://www.topografix.com/GPX/1/1 http://www.topografix.com/GPX/1/1/gpx.xsd" version="1.1" creator="VisuGPX - https://www.visugpx.com">
  <metadata>
    <name>12 Feb 2022</name>
    <desc><![CDATA[Neige parfaite pour cette magnifique boucle. Crête bien dégarnie avec parfois de la glace mais passable, petites marches dans neige dure dans le raidillon sous le sommet, bonne neige dans le couloir sous les chalets et sur le sentier de retour. Neige de rêve partout ailleurs!]]></desc>
  </metadata>
  <trk>
    <name><![CDATA[12 Feb 2022]]></name>
    <desc><![CDATA[comment ...]]></desc>
    <extensions>
      <line xmlns="http://www.topografix.com/GPX/gpx_style/0/2">
        <color>0000FF</color>
        <width>4</width>
      </line>
    </extensions>
    <trkseg>
      <trkpt lat="46.24952" lon="6.7219">
        <ele>1140</ele>
        <time>2022-02-12T09:25:25Z</time>
      </trkpt>
      <trkpt lat="46.24956" lon="6.72192">
        <ele>1143</ele>
        <time>2022-02-12T09:25:41Z</time>
      </trkpt>
      <trkpt lat="46.24965" lon="6.72181">
        <ele>1145</ele>
        <time>2022-02-12T09:29:30Z</time>
      </trkpt>
      <trkpt lat="46.24963" lon="6.7218">
        <ele>1143</ele>
        <time>2022-02-12T09:39:12Z</time>
      </trkpt>
      <trkpt lat="46.24952" lon="6.72182">
        <ele>1143</ele>
        <time>2022-02-12T09:40:36Z</time>
      </trkpt>
      <trkpt lat="46.2494" lon="6.72188">
        <ele>1143</ele>
        <time>2022-02-12T09:40:57Z</time>
      </trkpt>
      <trkpt lat="46.2493" lon="6.72195">
        <ele>1150</ele>
        <time>2022-02-12T09:41:11Z</time>
      </trkpt>
      <trkpt lat="46.24915" lon="6.72196">
        <ele>1152</ele>
        <time>2022-02-12T09:41:26Z</time>
      </trkpt>
      <trkpt lat="46.24904" lon="6.72211">
        <ele>1152</ele>
        <time>2022-02-12T09:42:09Z</time>
      </trkpt>
      <trkpt lat="46.249" lon="6.72225">
        <ele>1150</ele>
        <time>2022-02-12T09:42:39Z</time>
      </trkpt>
      <trkpt lat="46.24888" lon="6.72233">
        <ele>1148</ele>
        <time>2022-02-12T09:42:50Z</time>
      </trkpt>
      <trkpt lat="46.24861" lon="6.72223">
        <ele>1145</ele>
        <time>2022-02-12T09:43:20Z</time>
      </trkpt>
      <trkpt lat="46.24839" lon="6.72217">
        <ele>1147</ele>
        <time>2022-02-12T09:44:02Z</time>
      </trkpt>
      <trkpt lat="46.24828" lon="6.72208">
        <ele>1154</ele>
        <time>2022-02-12T09:44:28Z</time>
      </trkpt>
      <trkpt lat="46.2482" lon="6.72198">
        <ele>1156</ele>
        <time>2022-02-12T09:44:41Z</time>
      </trkpt>
      <trkpt lat="46.24813" lon="6.72182">
        <ele>1164</ele>
        <time>2022-02-12T09:45:01Z</time>
      </trkpt>
      <trkpt lat="46.24808" lon="6.72168">
        <ele>1166</ele>
        <time>2022-02-12T09:45:10Z</time>
      </trkpt>
      <trkpt lat="46.24797" lon="6.7216">
        <ele>1172</ele>
        <time>2022-02-12T09:45:17Z</time>
      </trkpt>
      <trkpt lat="46.2479" lon="6.72155">
        <ele>1172</ele>
        <time>2022-02-12T09:45:31Z</time>
      </trkpt>
      <trkpt lat="46.24781" lon="6.72147">
        <ele>1171</ele>
        <time>2022-02-12T09:45:42Z</time>
      </trkpt>
      <trkpt lat="46.24775" lon="6.72133">
        <ele>1170</ele>
        <time>2022-02-12T09:46:10Z</time>
      </trkpt>
      <trkpt lat="46.24778" lon="6.72105">
        <ele>1171</ele>
        <time>2022-02-12T09:46:33Z</time>
      </trkpt>
      <trkpt lat="46.24781" lon="6.72092">
        <ele>1171</ele>
        <time>2022-02-12T09:46:40Z</time>
      </trkpt>
      <trkpt lat="46.24786" lon="6.72082">
        <ele>1172</ele>
        <time>2022-02-12T09:46:44Z</time>
      </trkpt>
      <trkpt lat="46.2479" lon="6.72073">
        <ele>1173</ele>
        <time>2022-02-12T09:46:52Z</time>
      </trkpt>
      <trkpt lat="46.24794" lon="6.72049">
        <ele>1176</ele>
        <time>2022-02-12T09:47:09Z</time>
      </trkpt>
      <trkpt lat="46.24798" lon="6.72026">
        <ele>1180</ele>
        <time>2022-02-12T09:47:33Z</time>
      </trkpt>
      <trkpt lat="46.248" lon="6.72016">
        <ele>1182</ele>
        <time>2022-02-12T09:47:41Z</time>
      </trkpt>
      <trkpt lat="46.24804" lon="6.71983">
        <ele>1185</ele>
        <time>2022-02-12T09:48:12Z</time>
      </trkpt>
      <trkpt lat="46.24812" lon="6.7194">
        <ele>1187</ele>
        <time>2022-02-12T09:48:40Z</time>
      </trkpt>
      <trkpt lat="46.24811" lon="6.71929">
        <ele>1187</ele>
        <time>2022-02-12T09:48:46Z</time>
      </trkpt>
      <trkpt lat="46.24811" lon="6.71919">
        <ele>1187</ele>
        <time>2022-02-12T09:48:53Z</time>
      </trkpt>
      <trkpt lat="46.24808" lon="6.71909">
        <ele>1187</ele>
        <time>2022-02-12T09:49:03Z</time>
      </trkpt>
      <trkpt lat="46.24809" lon="6.71897">
        <ele>1187</ele>
        <time>2022-02-12T09:49:12Z</time>
      </trkpt>
      <trkpt lat="46.24805" lon="6.71882">
        <ele>1187</ele>
        <time>2022-02-12T09:49:25Z</time>
      </trkpt>
      <trkpt lat="46.24799" lon="6.71868">
        <ele>1186</ele>
        <time>2022-02-12T09:49:36Z</time>
      </trkpt>
      <trkpt lat="46.24796" lon="6.71849">
        <ele>1185</ele>
        <time>2022-02-12T09:49:48Z</time>
      </trkpt>
      <trkpt lat="46.24795" lon="6.71832">
        <ele>1187</ele>
        <time>2022-02-12T09:49:55Z</time>
      </trkpt>
      <trkpt lat="46.2479" lon="6.71823">
        <ele>1188</ele>
        <time>2022-02-12T09:50:07Z</time>
      </trkpt>
      <trkpt lat="46.24783" lon="6.7182">
        <ele>1189</ele>
        <time>2022-02-12T09:50:17Z</time>
      </trkpt>
      <trkpt lat="46.24772" lon="6.71821">
        <ele>1191</ele>
        <time>2022-02-12T09:50:31Z</time>
      </trkpt>
      <trkpt lat="46.24763" lon="6.71818">
        <ele>1192</ele>
        <time>2022-02-12T09:50:42Z</time>
      </trkpt>
      <trkpt lat="46.24757" lon="6.71806">
        <ele>1193</ele>
        <time>2022-02-12T09:50:58Z</time>
      </trkpt>
      <trkpt lat="46.2475" lon="6.718">
        <ele>1194</ele>
        <time>2022-02-12T09:51:12Z</time>
      </trkpt>
      <trkpt lat="46.24745" lon="6.71785">
        <ele>1196</ele>
        <time>2022-02-12T09:51:24Z</time>
      </trkpt>
      <trkpt lat="46.24739" lon="6.71779">
        <ele>1199</ele>
        <time>2022-02-12T09:51:42Z</time>
      </trkpt>
      <trkpt lat="46.24731" lon="6.71768">
        <ele>1201</ele>
        <time>2022-02-12T09:51:53Z</time>
      </trkpt>
      <trkpt lat="46.24723" lon="6.71758">
        <ele>1202</ele>
        <time>2022-02-12T09:52:03Z</time>
      </trkpt>
      <trkpt lat="46.24716" lon="6.71755">
        <ele>1206</ele>
        <time>2022-02-12T09:52:13Z</time>
      </trkpt>
      <trkpt lat="46.24705" lon="6.71751">
        <ele>1208</ele>
        <time>2022-02-12T09:52:35Z</time>
      </trkpt>
      <trkpt lat="46.24698" lon="6.71745">
        <ele>1211</ele>
        <time>2022-02-12T09:52:49Z</time>
      </trkpt>
      <trkpt lat="46.24691" lon="6.7174">
        <ele>1212</ele>
        <time>2022-02-12T09:53:01Z</time>
      </trkpt>
      <trkpt lat="46.24684" lon="6.71732">
        <ele>1214</ele>
        <time>2022-02-12T09:53:13Z</time>
      </trkpt>
      <trkpt lat="46.24678" lon="6.71726">
        <ele>1215</ele>
        <time>2022-02-12T09:53:26Z</time>
      </trkpt>
      <trkpt lat="46.24671" lon="6.71721">
        <ele>1214</ele>
        <time>2022-02-12T09:53:33Z</time>
      </trkpt>
      <trkpt lat="46.24666" lon="6.71712">
        <ele>1215</ele>
        <time>2022-02-12T09:53:39Z</time>
      </trkpt>
      <trkpt lat="46.24658" lon="6.71705">
        <ele>1218</ele>
        <time>2022-02-12T09:54:00Z</time>
      </trkpt>
      <trkpt lat="46.24653" lon="6.71696">
        <ele>1221</ele>
        <time>2022-02-12T09:54:18Z</time>
      </trkpt>
      <trkpt lat="46.24644" lon="6.71684">
        <ele>1222</ele>
        <time>2022-02-12T09:54:29Z</time>
      </trkpt>
      <trkpt lat="46.24636" lon="6.71674">
        <ele>1224</ele>
        <time>2022-02-12T09:54:38Z</time>
      </trkpt>
      <trkpt lat="46.2463" lon="6.71666">
        <ele>1227</ele>
        <time>2022-02-12T09:54:53Z</time>
      </trkpt>
      <trkpt lat="46.24622" lon="6.71661">
        <ele>1229</ele>
        <time>2022-02-12T09:55:04Z</time>
      </trkpt>
      <trkpt lat="46.24621" lon="6.71649">
        <ele>1232</ele>
        <time>2022-02-12T09:55:19Z</time>
      </trkpt>
      <trkpt lat="46.24619" lon="6.71639">
        <ele>1234</ele>
        <time>2022-02-12T09:55:34Z</time>
      </trkpt>
      <trkpt lat="46.24621" lon="6.71625">
        <ele>1236</ele>
        <time>2022-02-12T09:55:48Z</time>
      </trkpt>
      <trkpt lat="46.24625" lon="6.71614">
        <ele>1238</ele>
        <time>2022-02-12T09:56:06Z</time>
      </trkpt>
      <trkpt lat="46.24636" lon="6.71609">
        <ele>1240</ele>
        <time>2022-02-12T09:56:13Z</time>
      </trkpt>
      <trkpt lat="46.24644" lon="6.71609">
        <ele>1243</ele>
        <time>2022-02-12T09:56:25Z</time>
      </trkpt>
      <trkpt lat="46.24651" lon="6.71608">
        <ele>1248</ele>
        <time>2022-02-12T09:56:40Z</time>
      </trkpt>
      <trkpt lat="46.24662" lon="6.71604">
        <ele>1253</ele>
        <time>2022-02-12T09:57:17Z</time>
      </trkpt>
      <trkpt lat="46.24672" lon="6.71597">
        <ele>1258</ele>
        <time>2022-02-12T09:57:43Z</time>
      </trkpt>
      <trkpt lat="46.2468" lon="6.71591">
        <ele>1260</ele>
        <time>2022-02-12T09:57:50Z</time>
      </trkpt>
      <trkpt lat="46.24695" lon="6.71589">
        <ele>1262</ele>
        <time>2022-02-12T09:57:58Z</time>
      </trkpt>
      <trkpt lat="46.24701" lon="6.71581">
        <ele>1265</ele>
        <time>2022-02-12T09:58:27Z</time>
      </trkpt>
      <trkpt lat="46.24713" lon="6.71579">
        <ele>1265</ele>
        <time>2022-02-12T09:58:49Z</time>
      </trkpt>
      <trkpt lat="46.24736" lon="6.71561">
        <ele>1276</ele>
        <time>2022-02-12T09:59:29Z</time>
      </trkpt>
      <trkpt lat="46.24762" lon="6.71549">
        <ele>1283</ele>
        <time>2022-02-12T10:00:18Z</time>
      </trkpt>
      <trkpt lat="46.24774" lon="6.71541">
        <ele>1287</ele>
        <time>2022-02-12T10:00:35Z</time>
      </trkpt>
      <trkpt lat="46.24784" lon="6.71537">
        <ele>1293</ele>
        <time>2022-02-12T10:01:07Z</time>
      </trkpt>
      <trkpt lat="46.24793" lon="6.71541">
        <ele>1297</ele>
        <time>2022-02-12T10:01:28Z</time>
      </trkpt>
      <trkpt lat="46.24806" lon="6.71538">
        <ele>1299</ele>
        <time>2022-02-12T10:01:36Z</time>
      </trkpt>
      <trkpt lat="46.24817" lon="6.71541">
        <ele>1303</ele>
        <time>2022-02-12T10:01:47Z</time>
      </trkpt>
      <trkpt lat="46.24824" lon="6.7154">
        <ele>1306</ele>
        <time>2022-02-12T10:02:03Z</time>
      </trkpt>
      <trkpt lat="46.24832" lon="6.71537">
        <ele>1308</ele>
        <time>2022-02-12T10:02:12Z</time>
      </trkpt>
      <trkpt lat="46.2484" lon="6.71536">
        <ele>1309</ele>
        <time>2022-02-12T10:02:29Z</time>
      </trkpt>
      <trkpt lat="46.24848" lon="6.71537">
        <ele>1312</ele>
        <time>2022-02-12T10:02:46Z</time>
      </trkpt>
      <trkpt lat="46.24856" lon="6.71537">
        <ele>1314</ele>
        <time>2022-02-12T10:03:04Z</time>
      </trkpt>
      <trkpt lat="46.24866" lon="6.71536">
        <ele>1318</ele>
        <time>2022-02-12T10:03:14Z</time>
      </trkpt>
      <trkpt lat="46.24874" lon="6.71537">
        <ele>1319</ele>
        <time>2022-02-12T10:03:21Z</time>
      </trkpt>
      <trkpt lat="46.24875" lon="6.71527">
        <ele>1322</ele>
        <time>2022-02-12T10:03:37Z</time>
      </trkpt>
      <trkpt lat="46.2487" lon="6.71518">
        <ele>1328</ele>
        <time>2022-02-12T10:05:37Z</time>
      </trkpt>
      <trkpt lat="46.24866" lon="6.71508">
        <ele>1337</ele>
        <time>2022-02-12T10:05:47Z</time>
      </trkpt>
      <trkpt lat="46.24861" lon="6.715">
        <ele>1338</ele>
        <time>2022-02-12T10:05:59Z</time>
      </trkpt>
      <trkpt lat="46.24856" lon="6.71492">
        <ele>1338</ele>
        <time>2022-02-12T10:06:14Z</time>
      </trkpt>
      <trkpt lat="46.24844" lon="6.71477">
        <ele>1338</ele>
        <time>2022-02-12T10:06:44Z</time>
      </trkpt>
      <trkpt lat="46.24838" lon="6.7147">
        <ele>1339</ele>
        <time>2022-02-12T10:07:00Z</time>
      </trkpt>
      <trkpt lat="46.24833" lon="6.71462">
        <ele>1340</ele>
        <time>2022-02-12T10:07:08Z</time>
      </trkpt>
      <trkpt lat="46.24829" lon="6.71452">
        <ele>1340</ele>
        <time>2022-02-12T10:07:18Z</time>
      </trkpt>
      <trkpt lat="46.24827" lon="6.71442">
        <ele>1341</ele>
        <time>2022-02-12T10:07:29Z</time>
      </trkpt>
      <trkpt lat="46.24828" lon="6.71422">
        <ele>1344</ele>
        <time>2022-02-12T10:07:57Z</time>
      </trkpt>
      <trkpt lat="46.2483" lon="6.71412">
        <ele>1345</ele>
        <time>2022-02-12T10:08:12Z</time>
      </trkpt>
      <trkpt lat="46.24831" lon="6.71401">
        <ele>1346</ele>
        <time>2022-02-12T10:08:32Z</time>
      </trkpt>
      <trkpt lat="46.24834" lon="6.71391">
        <ele>1347</ele>
        <time>2022-02-12T10:08:44Z</time>
      </trkpt>
      <trkpt lat="46.2484" lon="6.71383">
        <ele>1348</ele>
        <time>2022-02-12T10:08:52Z</time>
      </trkpt>
      <trkpt lat="46.2484" lon="6.71372">
        <ele>1349</ele>
        <time>2022-02-12T10:09:05Z</time>
      </trkpt>
      <trkpt lat="46.2484" lon="6.71361">
        <ele>1351</ele>
        <time>2022-02-12T10:09:22Z</time>
      </trkpt>
      <trkpt lat="46.24839" lon="6.71352">
        <ele>1352</ele>
        <time>2022-02-12T10:09:29Z</time>
      </trkpt>
      <trkpt lat="46.24841" lon="6.71344">
        <ele>1353</ele>
        <time>2022-02-12T10:09:38Z</time>
      </trkpt>
      <trkpt lat="46.24845" lon="6.71336">
        <ele>1354</ele>
        <time>2022-02-12T10:09:48Z</time>
      </trkpt>
      <trkpt lat="46.24845" lon="6.71328">
        <ele>1356</ele>
        <time>2022-02-12T10:09:56Z</time>
      </trkpt>
      <trkpt lat="46.24845" lon="6.71317">
        <ele>1357</ele>
        <time>2022-02-12T10:10:11Z</time>
      </trkpt>
      <trkpt lat="46.24851" lon="6.71308">
        <ele>1361</ele>
        <time>2022-02-12T10:10:24Z</time>
      </trkpt>
      <trkpt lat="46.24855" lon="6.713">
        <ele>1363</ele>
        <time>2022-02-12T10:10:34Z</time>
      </trkpt>
      <trkpt lat="46.24852" lon="6.71291">
        <ele>1368</ele>
        <time>2022-02-12T10:10:46Z</time>
      </trkpt>
      <trkpt lat="46.24849" lon="6.71282">
        <ele>1369</ele>
        <time>2022-02-12T10:10:55Z</time>
      </trkpt>
      <trkpt lat="46.24845" lon="6.71267">
        <ele>1375</ele>
        <time>2022-02-12T10:11:28Z</time>
      </trkpt>
      <trkpt lat="46.24847" lon="6.7126">
        <ele>1379</ele>
        <time>2022-02-12T10:11:40Z</time>
      </trkpt>
      <trkpt lat="46.24848" lon="6.71249">
        <ele>1381</ele>
        <time>2022-02-12T10:11:51Z</time>
      </trkpt>
      <trkpt lat="46.2485" lon="6.71239">
        <ele>1385</ele>
        <time>2022-02-12T10:12:04Z</time>
      </trkpt>
      <trkpt lat="46.2485" lon="6.71228">
        <ele>1387</ele>
        <time>2022-02-12T10:12:18Z</time>
      </trkpt>
      <trkpt lat="46.24852" lon="6.71217">
        <ele>1388</ele>
        <time>2022-02-12T10:12:29Z</time>
      </trkpt>
      <trkpt lat="46.24855" lon="6.71207">
        <ele>1390</ele>
        <time>2022-02-12T10:12:57Z</time>
      </trkpt>
      <trkpt lat="46.24849" lon="6.71196">
        <ele>1401</ele>
        <time>2022-02-12T10:13:16Z</time>
      </trkpt>
      <trkpt lat="46.24845" lon="6.71186">
        <ele>1402</ele>
        <time>2022-02-12T10:13:36Z</time>
      </trkpt>
      <trkpt lat="46.24839" lon="6.71156">
        <ele>1404</ele>
        <time>2022-02-12T10:14:09Z</time>
      </trkpt>
      <trkpt lat="46.24835" lon="6.71147">
        <ele>1405</ele>
        <time>2022-02-12T10:14:19Z</time>
      </trkpt>
      <trkpt lat="46.24831" lon="6.71135">
        <ele>1406</ele>
        <time>2022-02-12T10:14:36Z</time>
      </trkpt>
      <trkpt lat="46.24828" lon="6.71114">
        <ele>1413</ele>
        <time>2022-02-12T10:15:08Z</time>
      </trkpt>
      <trkpt lat="46.24825" lon="6.71092">
        <ele>1416</ele>
        <time>2022-02-12T10:15:36Z</time>
      </trkpt>
      <trkpt lat="46.24818" lon="6.71073">
        <ele>1414</ele>
        <time>2022-02-12T10:16:00Z</time>
      </trkpt>
      <trkpt lat="46.24815" lon="6.71062">
        <ele>1415</ele>
        <time>2022-02-12T10:16:14Z</time>
      </trkpt>
      <trkpt lat="46.24817" lon="6.71052">
        <ele>1415</ele>
        <time>2022-02-12T10:16:22Z</time>
      </trkpt>
      <trkpt lat="46.24813" lon="6.71032">
        <ele>1416</ele>
        <time>2022-02-12T10:16:51Z</time>
      </trkpt>
      <trkpt lat="46.24813" lon="6.7102">
        <ele>1418</ele>
        <time>2022-02-12T10:17:04Z</time>
      </trkpt>
      <trkpt lat="46.24807" lon="6.71001">
        <ele>1420</ele>
        <time>2022-02-12T10:17:33Z</time>
      </trkpt>
      <trkpt lat="46.24803" lon="6.70989">
        <ele>1422</ele>
        <time>2022-02-12T10:17:48Z</time>
      </trkpt>
      <trkpt lat="46.24797" lon="6.7098">
        <ele>1425</ele>
        <time>2022-02-12T10:18:05Z</time>
      </trkpt>
      <trkpt lat="46.24792" lon="6.70973">
        <ele>1425</ele>
        <time>2022-02-12T10:18:13Z</time>
      </trkpt>
      <trkpt lat="46.24786" lon="6.70965">
        <ele>1424</ele>
        <time>2022-02-12T10:18:28Z</time>
      </trkpt>
      <trkpt lat="46.24782" lon="6.70956">
        <ele>1425</ele>
        <time>2022-02-12T10:18:41Z</time>
      </trkpt>
      <trkpt lat="46.24774" lon="6.70937">
        <ele>1426</ele>
        <time>2022-02-12T10:19:11Z</time>
      </trkpt>
      <trkpt lat="46.2477" lon="6.70928">
        <ele>1427</ele>
        <time>2022-02-12T10:19:18Z</time>
      </trkpt>
      <trkpt lat="46.24766" lon="6.70919">
        <ele>1429</ele>
        <time>2022-02-12T10:19:42Z</time>
      </trkpt>
      <trkpt lat="46.24764" lon="6.70909">
        <ele>1431</ele>
        <time>2022-02-12T10:19:51Z</time>
      </trkpt>
      <trkpt lat="46.24762" lon="6.70898">
        <ele>1432</ele>
        <time>2022-02-12T10:20:04Z</time>
      </trkpt>
      <trkpt lat="46.24758" lon="6.70893">
        <ele>1432</ele>
        <time>2022-02-12T10:20:13Z</time>
      </trkpt>
      <trkpt lat="46.24753" lon="6.70887">
        <ele>1432</ele>
        <time>2022-02-12T10:20:20Z</time>
      </trkpt>
      <trkpt lat="46.24749" lon="6.7088">
        <ele>1433</ele>
        <time>2022-02-12T10:20:34Z</time>
      </trkpt>
      <trkpt lat="46.24746" lon="6.70873">
        <ele>1433</ele>
        <time>2022-02-12T10:20:44Z</time>
      </trkpt>
      <trkpt lat="46.24743" lon="6.70863">
        <ele>1433</ele>
        <time>2022-02-12T10:20:55Z</time>
      </trkpt>
      <trkpt lat="46.24741" lon="6.70855">
        <ele>1434</ele>
        <time>2022-02-12T10:21:04Z</time>
      </trkpt>
      <trkpt lat="46.24736" lon="6.7085">
        <ele>1434</ele>
        <time>2022-02-12T10:21:14Z</time>
      </trkpt>
      <trkpt lat="46.2473" lon="6.70846">
        <ele>1435</ele>
        <time>2022-02-12T10:21:21Z</time>
      </trkpt>
      <trkpt lat="46.24726" lon="6.70841">
        <ele>1436</ele>
        <time>2022-02-12T10:21:33Z</time>
      </trkpt>
      <trkpt lat="46.24721" lon="6.70826">
        <ele>1438</ele>
        <time>2022-02-12T10:21:51Z</time>
      </trkpt>
      <trkpt lat="46.24715" lon="6.7082">
        <ele>1441</ele>
        <time>2022-02-12T10:22:04Z</time>
      </trkpt>
      <trkpt lat="46.24712" lon="6.7081">
        <ele>1442</ele>
        <time>2022-02-12T10:22:19Z</time>
      </trkpt>
      <trkpt lat="46.24712" lon="6.70798">
        <ele>1445</ele>
        <time>2022-02-12T10:22:28Z</time>
      </trkpt>
      <trkpt lat="46.24708" lon="6.70791">
        <ele>1446</ele>
        <time>2022-02-12T10:22:38Z</time>
      </trkpt>
      <trkpt lat="46.24703" lon="6.70785">
        <ele>1446</ele>
        <time>2022-02-12T10:22:47Z</time>
      </trkpt>
      <trkpt lat="46.24702" lon="6.70777">
        <ele>1448</ele>
        <time>2022-02-12T10:22:56Z</time>
      </trkpt>
      <trkpt lat="46.24701" lon="6.70769">
        <ele>1450</ele>
        <time>2022-02-12T10:23:04Z</time>
      </trkpt>
      <trkpt lat="46.24697" lon="6.70762">
        <ele>1451</ele>
        <time>2022-02-12T10:23:16Z</time>
      </trkpt>
      <trkpt lat="46.24697" lon="6.70754">
        <ele>1452</ele>
        <time>2022-02-12T10:23:24Z</time>
      </trkpt>
      <trkpt lat="46.24696" lon="6.70746">
        <ele>1453</ele>
        <time>2022-02-12T10:23:33Z</time>
      </trkpt>
      <trkpt lat="46.24695" lon="6.70738">
        <ele>1454</ele>
        <time>2022-02-12T10:23:41Z</time>
      </trkpt>
      <trkpt lat="46.24691" lon="6.70719">
        <ele>1455</ele>
        <time>2022-02-12T10:24:03Z</time>
      </trkpt>
      <trkpt lat="46.24686" lon="6.70715">
        <ele>1456</ele>
        <time>2022-02-12T10:24:11Z</time>
      </trkpt>
      <trkpt lat="46.24682" lon="6.7071">
        <ele>1456</ele>
        <time>2022-02-12T10:24:19Z</time>
      </trkpt>
      <trkpt lat="46.24677" lon="6.70702">
        <ele>1456</ele>
        <time>2022-02-12T10:24:29Z</time>
      </trkpt>
      <trkpt lat="46.24667" lon="6.70688">
        <ele>1459</ele>
        <time>2022-02-12T10:24:41Z</time>
      </trkpt>
      <trkpt lat="46.24662" lon="6.70681">
        <ele>1460</ele>
        <time>2022-02-12T10:24:55Z</time>
      </trkpt>
      <trkpt lat="46.24658" lon="6.70675">
        <ele>1460</ele>
        <time>2022-02-12T10:25:04Z</time>
      </trkpt>
      <trkpt lat="46.24649" lon="6.70665">
        <ele>1460</ele>
        <time>2022-02-12T10:25:26Z</time>
      </trkpt>
      <trkpt lat="46.24642" lon="6.70659">
        <ele>1463</ele>
        <time>2022-02-12T10:25:37Z</time>
      </trkpt>
      <trkpt lat="46.24635" lon="6.70655">
        <ele>1466</ele>
        <time>2022-02-12T10:25:50Z</time>
      </trkpt>
      <trkpt lat="46.24628" lon="6.70649">
        <ele>1469</ele>
        <time>2022-02-12T10:26:10Z</time>
      </trkpt>
      <trkpt lat="46.24621" lon="6.7065">
        <ele>1472</ele>
        <time>2022-02-12T10:26:22Z</time>
      </trkpt>
      <trkpt lat="46.24616" lon="6.70641">
        <ele>1473</ele>
        <time>2022-02-12T10:26:35Z</time>
      </trkpt>
      <trkpt lat="46.24612" lon="6.70631">
        <ele>1474</ele>
        <time>2022-02-12T10:26:50Z</time>
      </trkpt>
      <trkpt lat="46.24607" lon="6.70639">
        <ele>1475</ele>
        <time>2022-02-12T10:27:06Z</time>
      </trkpt>
      <trkpt lat="46.24599" lon="6.7063">
        <ele>1477</ele>
        <time>2022-02-12T10:27:40Z</time>
      </trkpt>
      <trkpt lat="46.24592" lon="6.70633">
        <ele>1481</ele>
        <time>2022-02-12T10:28:11Z</time>
      </trkpt>
      <trkpt lat="46.24589" lon="6.70643">
        <ele>1480</ele>
        <time>2022-02-12T10:28:35Z</time>
      </trkpt>
      <trkpt lat="46.24588" lon="6.70653">
        <ele>1481</ele>
        <time>2022-02-12T10:29:04Z</time>
      </trkpt>
      <trkpt lat="46.24585" lon="6.70664">
        <ele>1482</ele>
        <time>2022-02-12T10:29:15Z</time>
      </trkpt>
      <trkpt lat="46.24578" lon="6.70686">
        <ele>1490</ele>
        <time>2022-02-12T10:29:54Z</time>
      </trkpt>
      <trkpt lat="46.24561" lon="6.70697">
        <ele>1493</ele>
        <time>2022-02-12T10:30:26Z</time>
      </trkpt>
      <trkpt lat="46.2456" lon="6.70687">
        <ele>1495</ele>
        <time>2022-02-12T10:30:59Z</time>
      </trkpt>
      <trkpt lat="46.24558" lon="6.70674">
        <ele>1496</ele>
        <time>2022-02-12T10:31:14Z</time>
      </trkpt>
      <trkpt lat="46.24555" lon="6.70665">
        <ele>1499</ele>
        <time>2022-02-12T10:31:31Z</time>
      </trkpt>
      <trkpt lat="46.24551" lon="6.70659">
        <ele>1502</ele>
        <time>2022-02-12T10:31:50Z</time>
      </trkpt>
      <trkpt lat="46.2455" lon="6.70641">
        <ele>1503</ele>
        <time>2022-02-12T10:32:14Z</time>
      </trkpt>
      <trkpt lat="46.24545" lon="6.70641">
        <ele>1504</ele>
        <time>2022-02-12T10:32:30Z</time>
      </trkpt>
      <trkpt lat="46.24539" lon="6.70644">
        <ele>1506</ele>
        <time>2022-02-12T10:32:42Z</time>
      </trkpt>
      <trkpt lat="46.24534" lon="6.70647">
        <ele>1508</ele>
        <time>2022-02-12T10:32:59Z</time>
      </trkpt>
      <trkpt lat="46.24529" lon="6.70647">
        <ele>1510</ele>
        <time>2022-02-12T10:33:11Z</time>
      </trkpt>
      <trkpt lat="46.24525" lon="6.70648">
        <ele>1511</ele>
        <time>2022-02-12T10:33:20Z</time>
      </trkpt>
      <trkpt lat="46.24522" lon="6.70644">
        <ele>1512</ele>
        <time>2022-02-12T10:33:32Z</time>
      </trkpt>
      <trkpt lat="46.24522" lon="6.70639">
        <ele>1513</ele>
        <time>2022-02-12T10:33:40Z</time>
      </trkpt>
      <trkpt lat="46.24521" lon="6.7062">
        <ele>1514</ele>
        <time>2022-02-12T10:34:12Z</time>
      </trkpt>
      <trkpt lat="46.24517" lon="6.70614">
        <ele>1514</ele>
        <time>2022-02-12T10:34:27Z</time>
      </trkpt>
      <trkpt lat="46.24519" lon="6.70603">
        <ele>1514</ele>
        <time>2022-02-12T10:34:51Z</time>
      </trkpt>
      <trkpt lat="46.24522" lon="6.70594">
        <ele>1515</ele>
        <time>2022-02-12T10:35:02Z</time>
      </trkpt>
      <trkpt lat="46.24519" lon="6.70586">
        <ele>1516</ele>
        <time>2022-02-12T10:35:16Z</time>
      </trkpt>
      <trkpt lat="46.24515" lon="6.70581">
        <ele>1520</ele>
        <time>2022-02-12T10:35:34Z</time>
      </trkpt>
      <trkpt lat="46.24511" lon="6.70576">
        <ele>1526</ele>
        <time>2022-02-12T10:35:50Z</time>
      </trkpt>
      <trkpt lat="46.24499" lon="6.70568">
        <ele>1530</ele>
        <time>2022-02-12T10:36:14Z</time>
      </trkpt>
      <trkpt lat="46.245" lon="6.7056">
        <ele>1531</ele>
        <time>2022-02-12T10:36:38Z</time>
      </trkpt>
      <trkpt lat="46.24495" lon="6.70556">
        <ele>1532</ele>
        <time>2022-02-12T10:37:01Z</time>
      </trkpt>
      <trkpt lat="46.24488" lon="6.70553">
        <ele>1535</ele>
        <time>2022-02-12T10:37:20Z</time>
      </trkpt>
      <trkpt lat="46.24482" lon="6.70548">
        <ele>1537</ele>
        <time>2022-02-12T10:37:26Z</time>
      </trkpt>
      <trkpt lat="46.24477" lon="6.70545">
        <ele>1540</ele>
        <time>2022-02-12T10:37:36Z</time>
      </trkpt>
      <trkpt lat="46.24466" lon="6.70547">
        <ele>1544</ele>
        <time>2022-02-12T10:38:05Z</time>
      </trkpt>
      <trkpt lat="46.24459" lon="6.70544">
        <ele>1546</ele>
        <time>2022-02-12T10:38:53Z</time>
      </trkpt>
      <trkpt lat="46.24454" lon="6.70525">
        <ele>1545</ele>
        <time>2022-02-12T10:39:22Z</time>
      </trkpt>
      <trkpt lat="46.24453" lon="6.70515">
        <ele>1546</ele>
        <time>2022-02-12T10:39:39Z</time>
      </trkpt>
      <trkpt lat="46.24449" lon="6.70505">
        <ele>1547</ele>
        <time>2022-02-12T10:40:00Z</time>
      </trkpt>
      <trkpt lat="46.24447" lon="6.70498">
        <ele>1549</ele>
        <time>2022-02-12T10:40:08Z</time>
      </trkpt>
      <trkpt lat="46.24442" lon="6.70488">
        <ele>1552</ele>
        <time>2022-02-12T10:40:21Z</time>
      </trkpt>
      <trkpt lat="46.24437" lon="6.70487">
        <ele>1554</ele>
        <time>2022-02-12T10:40:35Z</time>
      </trkpt>
      <trkpt lat="46.24431" lon="6.70495">
        <ele>1557</ele>
        <time>2022-02-12T10:41:49Z</time>
      </trkpt>
      <trkpt lat="46.24424" lon="6.705">
        <ele>1558</ele>
        <time>2022-02-12T10:42:03Z</time>
      </trkpt>
      <trkpt lat="46.24412" lon="6.70504">
        <ele>1561</ele>
        <time>2022-02-12T10:42:29Z</time>
      </trkpt>
      <trkpt lat="46.24408" lon="6.70499">
        <ele>1562</ele>
        <time>2022-02-12T10:42:35Z</time>
      </trkpt>
      <trkpt lat="46.24404" lon="6.7049">
        <ele>1568</ele>
        <time>2022-02-12T10:42:52Z</time>
      </trkpt>
      <trkpt lat="46.24402" lon="6.70479">
        <ele>1571</ele>
        <time>2022-02-12T10:43:11Z</time>
      </trkpt>
      <trkpt lat="46.24402" lon="6.70468">
        <ele>1575</ele>
        <time>2022-02-12T10:43:24Z</time>
      </trkpt>
      <trkpt lat="46.24401" lon="6.70459">
        <ele>1576</ele>
        <time>2022-02-12T10:43:40Z</time>
      </trkpt>
      <trkpt lat="46.244" lon="6.70447">
        <ele>1581</ele>
        <time>2022-02-12T10:44:01Z</time>
      </trkpt>
      <trkpt lat="46.24396" lon="6.70441">
        <ele>1582</ele>
        <time>2022-02-12T10:44:24Z</time>
      </trkpt>
      <trkpt lat="46.24391" lon="6.70443">
        <ele>1582</ele>
        <time>2022-02-12T10:44:51Z</time>
      </trkpt>
      <trkpt lat="46.24383" lon="6.70438">
        <ele>1583</ele>
        <time>2022-02-12T10:45:21Z</time>
      </trkpt>
      <trkpt lat="46.24375" lon="6.70428">
        <ele>1588</ele>
        <time>2022-02-12T10:45:39Z</time>
      </trkpt>
      <trkpt lat="46.2437" lon="6.70409">
        <ele>1593</ele>
        <time>2022-02-12T10:46:07Z</time>
      </trkpt>
      <trkpt lat="46.24366" lon="6.70398">
        <ele>1601</ele>
        <time>2022-02-12T10:46:22Z</time>
      </trkpt>
      <trkpt lat="46.24361" lon="6.70389">
        <ele>1606</ele>
        <time>2022-02-12T10:46:38Z</time>
      </trkpt>
      <trkpt lat="46.24355" lon="6.70394">
        <ele>1609</ele>
        <time>2022-02-12T10:47:16Z</time>
      </trkpt>
      <trkpt lat="46.24351" lon="6.704">
        <ele>1606</ele>
        <time>2022-02-12T10:47:35Z</time>
      </trkpt>
      <trkpt lat="46.24346" lon="6.70405">
        <ele>1606</ele>
        <time>2022-02-12T10:47:47Z</time>
      </trkpt>
      <trkpt lat="46.24341" lon="6.70396">
        <ele>1608</ele>
        <time>2022-02-12T10:48:17Z</time>
      </trkpt>
      <trkpt lat="46.24333" lon="6.70386">
        <ele>1615</ele>
        <time>2022-02-12T10:48:27Z</time>
      </trkpt>
      <trkpt lat="46.24331" lon="6.70376">
        <ele>1617</ele>
        <time>2022-02-12T10:48:37Z</time>
      </trkpt>
      <trkpt lat="46.24325" lon="6.70367">
        <ele>1622</ele>
        <time>2022-02-12T10:48:51Z</time>
      </trkpt>
      <trkpt lat="46.24321" lon="6.70377">
        <ele>1624</ele>
        <time>2022-02-12T10:49:10Z</time>
      </trkpt>
      <trkpt lat="46.24316" lon="6.70384">
        <ele>1624</ele>
        <time>2022-02-12T10:49:20Z</time>
      </trkpt>
      <trkpt lat="46.24309" lon="6.70393">
        <ele>1624</ele>
        <time>2022-02-12T10:49:34Z</time>
      </trkpt>
      <trkpt lat="46.24303" lon="6.70391">
        <ele>1629</ele>
        <time>2022-02-12T10:51:12Z</time>
      </trkpt>
      <trkpt lat="46.24297" lon="6.70384">
        <ele>1632</ele>
        <time>2022-02-12T10:51:19Z</time>
      </trkpt>
      <trkpt lat="46.24299" lon="6.70372">
        <ele>1636</ele>
        <time>2022-02-12T10:51:33Z</time>
      </trkpt>
      <trkpt lat="46.24297" lon="6.70362">
        <ele>1638</ele>
        <time>2022-02-12T10:51:44Z</time>
      </trkpt>
      <trkpt lat="46.24296" lon="6.70352">
        <ele>1639</ele>
        <time>2022-02-12T10:51:55Z</time>
      </trkpt>
      <trkpt lat="46.24293" lon="6.70342">
        <ele>1642</ele>
        <time>2022-02-12T10:52:04Z</time>
      </trkpt>
      <trkpt lat="46.24293" lon="6.70333">
        <ele>1645</ele>
        <time>2022-02-12T10:52:20Z</time>
      </trkpt>
      <trkpt lat="46.24291" lon="6.70323">
        <ele>1646</ele>
        <time>2022-02-12T10:52:32Z</time>
      </trkpt>
      <trkpt lat="46.24291" lon="6.70312">
        <ele>1647</ele>
        <time>2022-02-12T10:52:43Z</time>
      </trkpt>
      <trkpt lat="46.24288" lon="6.70302">
        <ele>1650</ele>
        <time>2022-02-12T10:52:56Z</time>
      </trkpt>
      <trkpt lat="46.24286" lon="6.70291">
        <ele>1651</ele>
        <time>2022-02-12T10:53:08Z</time>
      </trkpt>
      <trkpt lat="46.24286" lon="6.7028">
        <ele>1654</ele>
        <time>2022-02-12T10:53:27Z</time>
      </trkpt>
      <trkpt lat="46.24286" lon="6.7027">
        <ele>1653</ele>
        <time>2022-02-12T10:53:39Z</time>
      </trkpt>
      <trkpt lat="46.24284" lon="6.70259">
        <ele>1653</ele>
        <time>2022-02-12T10:53:52Z</time>
      </trkpt>
      <trkpt lat="46.24282" lon="6.70247">
        <ele>1656</ele>
        <time>2022-02-12T10:54:08Z</time>
      </trkpt>
      <trkpt lat="46.24281" lon="6.70232">
        <ele>1658</ele>
        <time>2022-02-12T10:54:22Z</time>
      </trkpt>
      <trkpt lat="46.24278" lon="6.70222">
        <ele>1661</ele>
        <time>2022-02-12T10:54:35Z</time>
      </trkpt>
      <trkpt lat="46.24269" lon="6.70214">
        <ele>1664</ele>
        <time>2022-02-12T10:54:54Z</time>
      </trkpt>
      <trkpt lat="46.24262" lon="6.70208">
        <ele>1671</ele>
        <time>2022-02-12T10:55:13Z</time>
      </trkpt>
      <trkpt lat="46.24255" lon="6.70204">
        <ele>1676</ele>
        <time>2022-02-12T10:55:34Z</time>
      </trkpt>
      <trkpt lat="46.24247" lon="6.70193">
        <ele>1679</ele>
        <time>2022-02-12T10:55:47Z</time>
      </trkpt>
      <trkpt lat="46.2424" lon="6.7019">
        <ele>1685</ele>
        <time>2022-02-12T10:56:52Z</time>
      </trkpt>
      <trkpt lat="46.24233" lon="6.70184">
        <ele>1685</ele>
        <time>2022-02-12T10:57:16Z</time>
      </trkpt>
      <trkpt lat="46.24227" lon="6.70178">
        <ele>1685</ele>
        <time>2022-02-12T10:57:30Z</time>
      </trkpt>
      <trkpt lat="46.24211" lon="6.70159">
        <ele>1687</ele>
        <time>2022-02-12T10:58:18Z</time>
      </trkpt>
      <trkpt lat="46.24204" lon="6.70158">
        <ele>1693</ele>
        <time>2022-02-12T10:58:35Z</time>
      </trkpt>
      <trkpt lat="46.24194" lon="6.70151">
        <ele>1695</ele>
        <time>2022-02-12T10:59:06Z</time>
      </trkpt>
      <trkpt lat="46.24184" lon="6.70149">
        <ele>1697</ele>
        <time>2022-02-12T10:59:29Z</time>
      </trkpt>
      <trkpt lat="46.24175" lon="6.70142">
        <ele>1699</ele>
        <time>2022-02-12T10:59:48Z</time>
      </trkpt>
      <trkpt lat="46.24164" lon="6.70143">
        <ele>1702</ele>
        <time>2022-02-12T11:00:12Z</time>
      </trkpt>
      <trkpt lat="46.24155" lon="6.70126">
        <ele>1702</ele>
        <time>2022-02-12T11:00:44Z</time>
      </trkpt>
      <trkpt lat="46.24146" lon="6.70115">
        <ele>1703</ele>
        <time>2022-02-12T11:01:25Z</time>
      </trkpt>
      <trkpt lat="46.2414" lon="6.70101">
        <ele>1704</ele>
        <time>2022-02-12T11:01:56Z</time>
      </trkpt>
      <trkpt lat="46.24133" lon="6.70088">
        <ele>1710</ele>
        <time>2022-02-12T11:02:31Z</time>
      </trkpt>
      <trkpt lat="46.24126" lon="6.70076">
        <ele>1713</ele>
        <time>2022-02-12T11:02:53Z</time>
      </trkpt>
      <trkpt lat="46.24122" lon="6.70067">
        <ele>1723</ele>
        <time>2022-02-12T11:03:12Z</time>
      </trkpt>
      <trkpt lat="46.24116" lon="6.70057">
        <ele>1730</ele>
        <time>2022-02-12T11:03:34Z</time>
      </trkpt>
      <trkpt lat="46.24112" lon="6.70042">
        <ele>1736</ele>
        <time>2022-02-12T11:03:57Z</time>
      </trkpt>
      <trkpt lat="46.24108" lon="6.70032">
        <ele>1741</ele>
        <time>2022-02-12T11:04:18Z</time>
      </trkpt>
      <trkpt lat="46.24099" lon="6.70021">
        <ele>1745</ele>
        <time>2022-02-12T11:04:45Z</time>
      </trkpt>
      <trkpt lat="46.24091" lon="6.70009">
        <ele>1750</ele>
        <time>2022-02-12T11:05:17Z</time>
      </trkpt>
      <trkpt lat="46.24088" lon="6.69994">
        <ele>1751</ele>
        <time>2022-02-12T11:05:36Z</time>
      </trkpt>
      <trkpt lat="46.24081" lon="6.69982">
        <ele>1758</ele>
        <time>2022-02-12T11:05:58Z</time>
      </trkpt>
      <trkpt lat="46.24073" lon="6.6997">
        <ele>1760</ele>
        <time>2022-02-12T11:06:15Z</time>
      </trkpt>
      <trkpt lat="46.24064" lon="6.69959">
        <ele>1763</ele>
        <time>2022-02-12T11:06:24Z</time>
      </trkpt>
      <trkpt lat="46.24054" lon="6.6995">
        <ele>1769</ele>
        <time>2022-02-12T11:06:44Z</time>
      </trkpt>
      <trkpt lat="46.24045" lon="6.69942">
        <ele>1771</ele>
        <time>2022-02-12T11:07:12Z</time>
      </trkpt>
      <trkpt lat="46.24032" lon="6.69934">
        <ele>1775</ele>
        <time>2022-02-12T11:07:26Z</time>
      </trkpt>
      <trkpt lat="46.24018" lon="6.69923">
        <ele>1780</ele>
        <time>2022-02-12T11:12:14Z</time>
      </trkpt>
      <trkpt lat="46.24006" lon="6.69914">
        <ele>1792</ele>
        <time>2022-02-12T11:12:39Z</time>
      </trkpt>
      <trkpt lat="46.23999" lon="6.69897">
        <ele>1795</ele>
        <time>2022-02-12T11:13:02Z</time>
      </trkpt>
      <trkpt lat="46.23991" lon="6.69893">
        <ele>1794</ele>
        <time>2022-02-12T11:13:30Z</time>
      </trkpt>
      <trkpt lat="46.2399" lon="6.69883">
        <ele>1792</ele>
        <time>2022-02-12T11:13:56Z</time>
      </trkpt>
      <trkpt lat="46.23983" lon="6.6988">
        <ele>1787</ele>
        <time>2022-02-12T11:14:08Z</time>
      </trkpt>
      <trkpt lat="46.23976" lon="6.69873">
        <ele>1787</ele>
        <time>2022-02-12T11:14:23Z</time>
      </trkpt>
      <trkpt lat="46.2397" lon="6.69867">
        <ele>1789</ele>
        <time>2022-02-12T11:14:49Z</time>
      </trkpt>
      <trkpt lat="46.23964" lon="6.69862">
        <ele>1790</ele>
        <time>2022-02-12T11:15:25Z</time>
      </trkpt>
      <trkpt lat="46.23959" lon="6.69853">
        <ele>1789</ele>
        <time>2022-02-12T11:15:49Z</time>
      </trkpt>
      <trkpt lat="46.23952" lon="6.69851">
        <ele>1789</ele>
        <time>2022-02-12T11:16:17Z</time>
      </trkpt>
      <trkpt lat="46.23946" lon="6.69845">
        <ele>1789</ele>
        <time>2022-02-12T11:16:28Z</time>
      </trkpt>
      <trkpt lat="46.23938" lon="6.69843">
        <ele>1788</ele>
        <time>2022-02-12T11:16:50Z</time>
      </trkpt>
      <trkpt lat="46.23929" lon="6.69836">
        <ele>1792</ele>
        <time>2022-02-12T11:17:28Z</time>
      </trkpt>
      <trkpt lat="46.23923" lon="6.6983">
        <ele>1794</ele>
        <time>2022-02-12T11:18:05Z</time>
      </trkpt>
      <trkpt lat="46.23915" lon="6.69832">
        <ele>1797</ele>
        <time>2022-02-12T11:18:20Z</time>
      </trkpt>
      <trkpt lat="46.23907" lon="6.69832">
        <ele>1798</ele>
        <time>2022-02-12T11:18:31Z</time>
      </trkpt>
      <trkpt lat="46.239" lon="6.69833">
        <ele>1800</ele>
        <time>2022-02-12T11:18:42Z</time>
      </trkpt>
      <trkpt lat="46.23893" lon="6.6982">
        <ele>1803</ele>
        <time>2022-02-12T11:19:09Z</time>
      </trkpt>
      <trkpt lat="46.23886" lon="6.69813">
        <ele>1806</ele>
        <time>2022-02-12T11:19:26Z</time>
      </trkpt>
      <trkpt lat="46.23876" lon="6.69807">
        <ele>1808</ele>
        <time>2022-02-12T11:19:59Z</time>
      </trkpt>
      <trkpt lat="46.23865" lon="6.69807">
        <ele>1808</ele>
        <time>2022-02-12T11:20:26Z</time>
      </trkpt>
      <trkpt lat="46.23861" lon="6.69794">
        <ele>1819</ele>
        <time>2022-02-12T11:21:42Z</time>
      </trkpt>
      <trkpt lat="46.2385" lon="6.69792">
        <ele>1821</ele>
        <time>2022-02-12T11:22:06Z</time>
      </trkpt>
      <trkpt lat="46.2384" lon="6.69797">
        <ele>1828</ele>
        <time>2022-02-12T11:22:28Z</time>
      </trkpt>
      <trkpt lat="46.23831" lon="6.69795">
        <ele>1830</ele>
        <time>2022-02-12T11:22:53Z</time>
      </trkpt>
      <trkpt lat="46.2382" lon="6.69796">
        <ele>1834</ele>
        <time>2022-02-12T11:23:31Z</time>
      </trkpt>
      <trkpt lat="46.23819" lon="6.69793">
        <ele>1835</ele>
        <time>2022-02-12T11:24:06Z</time>
      </trkpt>
      <trkpt lat="46.23821" lon="6.69786">
        <ele>1836</ele>
        <time>2022-02-12T11:24:25Z</time>
      </trkpt>
      <trkpt lat="46.23812" lon="6.69781">
        <ele>1855</ele>
        <time>2022-02-12T11:25:02Z</time>
      </trkpt>
      <trkpt lat="46.23806" lon="6.69785">
        <ele>1855</ele>
        <time>2022-02-12T11:25:12Z</time>
      </trkpt>
      <trkpt lat="46.23796" lon="6.69786">
        <ele>1855</ele>
        <time>2022-02-12T11:25:31Z</time>
      </trkpt>
      <trkpt lat="46.23789" lon="6.69785">
        <ele>1855</ele>
        <time>2022-02-12T11:26:08Z</time>
      </trkpt>
      <trkpt lat="46.23799" lon="6.69767">
        <ele>1855</ele>
        <time>2022-02-12T11:26:43Z</time>
      </trkpt>
      <trkpt lat="46.23797" lon="6.69753">
        <ele>1859</ele>
        <time>2022-02-12T11:27:17Z</time>
      </trkpt>
      <trkpt lat="46.23782" lon="6.69758">
        <ele>1859</ele>
        <time>2022-02-12T11:27:40Z</time>
      </trkpt>
      <trkpt lat="46.23776" lon="6.69768">
        <ele>1860</ele>
        <time>2022-02-12T11:27:59Z</time>
      </trkpt>
      <trkpt lat="46.23774" lon="6.69757">
        <ele>1865</ele>
        <time>2022-02-12T11:28:44Z</time>
      </trkpt>
      <trkpt lat="46.23768" lon="6.6976">
        <ele>1873</ele>
        <time>2022-02-12T11:29:09Z</time>
      </trkpt>
      <trkpt lat="46.23763" lon="6.69752">
        <ele>1877</ele>
        <time>2022-02-12T11:29:42Z</time>
      </trkpt>
      <trkpt lat="46.23766" lon="6.69745">
        <ele>1878</ele>
        <time>2022-02-12T11:30:02Z</time>
      </trkpt>
      <trkpt lat="46.2376" lon="6.69742">
        <ele>1884</ele>
        <time>2022-02-12T11:30:31Z</time>
      </trkpt>
      <trkpt lat="46.23762" lon="6.69733">
        <ele>1888</ele>
        <time>2022-02-12T11:31:04Z</time>
      </trkpt>
      <trkpt lat="46.23764" lon="6.69724">
        <ele>1892</ele>
        <time>2022-02-12T11:31:22Z</time>
      </trkpt>
      <trkpt lat="46.23759" lon="6.69723">
        <ele>1892</ele>
        <time>2022-02-12T11:31:31Z</time>
      </trkpt>
      <trkpt lat="46.23753" lon="6.69724">
        <ele>1895</ele>
        <time>2022-02-12T11:31:44Z</time>
      </trkpt>
      <trkpt lat="46.23744" lon="6.69735">
        <ele>1897</ele>
        <time>2022-02-12T11:32:12Z</time>
      </trkpt>
      <trkpt lat="46.23742" lon="6.69724">
        <ele>1899</ele>
        <time>2022-02-12T11:32:34Z</time>
      </trkpt>
      <trkpt lat="46.23742" lon="6.69713">
        <ele>1901</ele>
        <time>2022-02-12T11:32:52Z</time>
      </trkpt>
      <trkpt lat="46.23746" lon="6.69706">
        <ele>1903</ele>
        <time>2022-02-12T11:33:06Z</time>
      </trkpt>
      <trkpt lat="46.23742" lon="6.69699">
        <ele>1904</ele>
        <time>2022-02-12T11:33:29Z</time>
      </trkpt>
      <trkpt lat="46.23738" lon="6.69701">
        <ele>1908</ele>
        <time>2022-02-12T11:34:13Z</time>
      </trkpt>
      <trkpt lat="46.23733" lon="6.69699">
        <ele>1919</ele>
        <time>2022-02-12T11:47:40Z</time>
      </trkpt>
      <trkpt lat="46.23729" lon="6.69709">
        <ele>1919</ele>
        <time>2022-02-12T11:47:50Z</time>
      </trkpt>
      <trkpt lat="46.23725" lon="6.69714">
        <ele>1919</ele>
        <time>2022-02-12T11:47:58Z</time>
      </trkpt>
      <trkpt lat="46.23723" lon="6.69719">
        <ele>1920</ele>
        <time>2022-02-12T11:48:05Z</time>
      </trkpt>
      <trkpt lat="46.23719" lon="6.6973">
        <ele>1920</ele>
        <time>2022-02-12T11:48:16Z</time>
      </trkpt>
      <trkpt lat="46.23715" lon="6.69736">
        <ele>1921</ele>
        <time>2022-02-12T11:48:22Z</time>
      </trkpt>
      <trkpt lat="46.2371" lon="6.69746">
        <ele>1922</ele>
        <time>2022-02-12T11:48:34Z</time>
      </trkpt>
      <trkpt lat="46.23708" lon="6.69752">
        <ele>1922</ele>
        <time>2022-02-12T11:48:42Z</time>
      </trkpt>
      <trkpt lat="46.23702" lon="6.69771">
        <ele>1925</ele>
        <time>2022-02-12T11:49:07Z</time>
      </trkpt>
      <trkpt lat="46.23705" lon="6.69775">
        <ele>1927</ele>
        <time>2022-02-12T11:49:21Z</time>
      </trkpt>
      <trkpt lat="46.23705" lon="6.69781">
        <ele>1927</ele>
        <time>2022-02-12T11:49:37Z</time>
      </trkpt>
      <trkpt lat="46.23703" lon="6.69785">
        <ele>1929</ele>
        <time>2022-02-12T11:49:44Z</time>
      </trkpt>
      <trkpt lat="46.23699" lon="6.69789">
        <ele>1930</ele>
        <time>2022-02-12T11:49:51Z</time>
      </trkpt>
      <trkpt lat="46.23694" lon="6.69795">
        <ele>1932</ele>
        <time>2022-02-12T11:50:02Z</time>
      </trkpt>
      <trkpt lat="46.23692" lon="6.69802">
        <ele>1933</ele>
        <time>2022-02-12T11:50:14Z</time>
      </trkpt>
      <trkpt lat="46.2369" lon="6.69809">
        <ele>1935</ele>
        <time>2022-02-12T11:50:28Z</time>
      </trkpt>
      <trkpt lat="46.23693" lon="6.69815">
        <ele>1937</ele>
        <time>2022-02-12T11:50:46Z</time>
      </trkpt>
      <trkpt lat="46.23699" lon="6.69815">
        <ele>1938</ele>
        <time>2022-02-12T11:50:56Z</time>
      </trkpt>
      <trkpt lat="46.23703" lon="6.69816">
        <ele>1941</ele>
        <time>2022-02-12T11:51:09Z</time>
      </trkpt>
      <trkpt lat="46.237" lon="6.69824">
        <ele>1942</ele>
        <time>2022-02-12T11:51:16Z</time>
      </trkpt>
      <trkpt lat="46.23697" lon="6.69829">
        <ele>1944</ele>
        <time>2022-02-12T11:51:30Z</time>
      </trkpt>
      <trkpt lat="46.23685" lon="6.69852">
        <ele>1949</ele>
        <time>2022-02-12T11:52:04Z</time>
      </trkpt>
      <trkpt lat="46.23682" lon="6.69859">
        <ele>1951</ele>
        <time>2022-02-12T11:52:25Z</time>
      </trkpt>
      <trkpt lat="46.23674" lon="6.6987">
        <ele>1955</ele>
        <time>2022-02-12T11:52:55Z</time>
      </trkpt>
      <trkpt lat="46.2367" lon="6.69875">
        <ele>1958</ele>
        <time>2022-02-12T11:53:14Z</time>
      </trkpt>
      <trkpt lat="46.23666" lon="6.69881">
        <ele>1959</ele>
        <time>2022-02-12T11:53:25Z</time>
      </trkpt>
      <trkpt lat="46.23665" lon="6.69888">
        <ele>1961</ele>
        <time>2022-02-12T11:53:40Z</time>
      </trkpt>
      <trkpt lat="46.23674" lon="6.69888">
        <ele>1964</ele>
        <time>2022-02-12T11:54:00Z</time>
      </trkpt>
      <trkpt lat="46.23679" lon="6.6989">
        <ele>1965</ele>
        <time>2022-02-12T11:54:15Z</time>
      </trkpt>
      <trkpt lat="46.2369" lon="6.69896">
        <ele>1969</ele>
        <time>2022-02-12T11:54:46Z</time>
      </trkpt>
      <trkpt lat="46.23693" lon="6.69899">
        <ele>1971</ele>
        <time>2022-02-12T11:54:58Z</time>
      </trkpt>
      <trkpt lat="46.2369" lon="6.69902">
        <ele>1973</ele>
        <time>2022-02-12T11:55:14Z</time>
      </trkpt>
      <trkpt lat="46.23689" lon="6.69908">
        <ele>1975</ele>
        <time>2022-02-12T11:55:26Z</time>
      </trkpt>
      <trkpt lat="46.23686" lon="6.69913">
        <ele>1977</ele>
        <time>2022-02-12T11:55:34Z</time>
      </trkpt>
      <trkpt lat="46.2369" lon="6.6992">
        <ele>1979</ele>
        <time>2022-02-12T11:55:54Z</time>
      </trkpt>
      <trkpt lat="46.23694" lon="6.6992">
        <ele>1981</ele>
        <time>2022-02-12T11:56:03Z</time>
      </trkpt>
      <trkpt lat="46.23699" lon="6.69928">
        <ele>1984</ele>
        <time>2022-02-12T11:56:28Z</time>
      </trkpt>
      <trkpt lat="46.23696" lon="6.69932">
        <ele>1985</ele>
        <time>2022-02-12T11:56:37Z</time>
      </trkpt>
      <trkpt lat="46.23692" lon="6.69938">
        <ele>1985</ele>
        <time>2022-02-12T11:56:48Z</time>
      </trkpt>
      <trkpt lat="46.2369" lon="6.69943">
        <ele>1988</ele>
        <time>2022-02-12T11:56:54Z</time>
      </trkpt>
      <trkpt lat="46.23697" lon="6.69956">
        <ele>1989</ele>
        <time>2022-02-12T11:57:22Z</time>
      </trkpt>
      <trkpt lat="46.23698" lon="6.69964">
        <ele>1992</ele>
        <time>2022-02-12T11:57:40Z</time>
      </trkpt>
      <trkpt lat="46.23699" lon="6.69972">
        <ele>1994</ele>
        <time>2022-02-12T11:57:50Z</time>
      </trkpt>
      <trkpt lat="46.23698" lon="6.69977">
        <ele>1996</ele>
        <time>2022-02-12T11:58:01Z</time>
      </trkpt>
      <trkpt lat="46.23698" lon="6.69985">
        <ele>1997</ele>
        <time>2022-02-12T11:58:11Z</time>
      </trkpt>
      <trkpt lat="46.23695" lon="6.69994">
        <ele>1999</ele>
        <time>2022-02-12T11:58:26Z</time>
      </trkpt>
      <trkpt lat="46.23688" lon="6.70006">
        <ele>2001</ele>
        <time>2022-02-12T11:58:43Z</time>
      </trkpt>
      <trkpt lat="46.23687" lon="6.70014">
        <ele>2001</ele>
        <time>2022-02-12T11:58:51Z</time>
      </trkpt>
      <trkpt lat="46.23691" lon="6.70014">
        <ele>2002</ele>
        <time>2022-02-12T11:59:10Z</time>
      </trkpt>
      <trkpt lat="46.23692" lon="6.70022">
        <ele>2003</ele>
        <time>2022-02-12T11:59:41Z</time>
      </trkpt>
      <trkpt lat="46.23694" lon="6.7003">
        <ele>2007</ele>
        <time>2022-02-12T11:59:54Z</time>
      </trkpt>
      <trkpt lat="46.23695" lon="6.70037">
        <ele>2008</ele>
        <time>2022-02-12T12:00:09Z</time>
      </trkpt>
      <trkpt lat="46.23693" lon="6.70044">
        <ele>2011</ele>
        <time>2022-02-12T12:00:23Z</time>
      </trkpt>
      <trkpt lat="46.23698" lon="6.70043">
        <ele>2012</ele>
        <time>2022-02-12T12:00:37Z</time>
      </trkpt>
      <trkpt lat="46.23702" lon="6.70042">
        <ele>2012</ele>
        <time>2022-02-12T12:00:46Z</time>
      </trkpt>
      <trkpt lat="46.23703" lon="6.7005">
        <ele>2014</ele>
        <time>2022-02-12T12:01:20Z</time>
      </trkpt>
      <trkpt lat="46.23704" lon="6.70058">
        <ele>2017</ele>
        <time>2022-02-12T12:01:31Z</time>
      </trkpt>
      <trkpt lat="46.23703" lon="6.70063">
        <ele>2020</ele>
        <time>2022-02-12T12:01:46Z</time>
      </trkpt>
      <trkpt lat="46.23708" lon="6.70062">
        <ele>2022</ele>
        <time>2022-02-12T12:02:11Z</time>
      </trkpt>
      <trkpt lat="46.23707" lon="6.7007">
        <ele>2024</ele>
        <time>2022-02-12T12:03:12Z</time>
      </trkpt>
      <trkpt lat="46.23705" lon="6.7008">
        <ele>2026</ele>
        <time>2022-02-12T12:03:27Z</time>
      </trkpt>
      <trkpt lat="46.23705" lon="6.70088">
        <ele>2028</ele>
        <time>2022-02-12T12:03:41Z</time>
      </trkpt>
      <trkpt lat="46.23706" lon="6.70096">
        <ele>2029</ele>
        <time>2022-02-12T12:03:56Z</time>
      </trkpt>
      <trkpt lat="46.23707" lon="6.70102">
        <ele>2031</ele>
        <time>2022-02-12T12:04:06Z</time>
      </trkpt>
      <trkpt lat="46.23707" lon="6.7011">
        <ele>2032</ele>
        <time>2022-02-12T12:04:48Z</time>
      </trkpt>
      <trkpt lat="46.2371" lon="6.70117">
        <ele>2033</ele>
        <time>2022-02-12T12:04:56Z</time>
      </trkpt>
      <trkpt lat="46.23712" lon="6.70125">
        <ele>2034</ele>
        <time>2022-02-12T12:05:07Z</time>
      </trkpt>
      <trkpt lat="46.23712" lon="6.70134">
        <ele>2036</ele>
        <time>2022-02-12T12:05:16Z</time>
      </trkpt>
      <trkpt lat="46.23715" lon="6.70138">
        <ele>2037</ele>
        <time>2022-02-12T12:05:27Z</time>
      </trkpt>
      <trkpt lat="46.23717" lon="6.70153">
        <ele>2039</ele>
        <time>2022-02-12T12:05:47Z</time>
      </trkpt>
      <trkpt lat="46.23717" lon="6.70162">
        <ele>2040</ele>
        <time>2022-02-12T12:05:54Z</time>
      </trkpt>
      <trkpt lat="46.23716" lon="6.70169">
        <ele>2041</ele>
        <time>2022-02-12T12:06:04Z</time>
      </trkpt>
      <trkpt lat="46.23715" lon="6.70179">
        <ele>2043</ele>
        <time>2022-02-12T12:06:14Z</time>
      </trkpt>
      <trkpt lat="46.23718" lon="6.70186">
        <ele>2043</ele>
        <time>2022-02-12T12:06:21Z</time>
      </trkpt>
      <trkpt lat="46.23719" lon="6.70213">
        <ele>2048</ele>
        <time>2022-02-12T12:06:56Z</time>
      </trkpt>
      <trkpt lat="46.23721" lon="6.70219">
        <ele>2048</ele>
        <time>2022-02-12T12:07:08Z</time>
      </trkpt>
      <trkpt lat="46.23719" lon="6.70226">
        <ele>2049</ele>
        <time>2022-02-12T12:07:19Z</time>
      </trkpt>
      <trkpt lat="46.2372" lon="6.70233">
        <ele>2050</ele>
        <time>2022-02-12T12:07:31Z</time>
      </trkpt>
      <trkpt lat="46.23718" lon="6.70238">
        <ele>2051</ele>
        <time>2022-02-12T12:07:40Z</time>
      </trkpt>
      <trkpt lat="46.23715" lon="6.70243">
        <ele>2054</ele>
        <time>2022-02-12T12:08:13Z</time>
      </trkpt>
      <trkpt lat="46.23716" lon="6.70251">
        <ele>2056</ele>
        <time>2022-02-12T12:08:25Z</time>
      </trkpt>
      <trkpt lat="46.2372" lon="6.7025">
        <ele>2057</ele>
        <time>2022-02-12T12:08:46Z</time>
      </trkpt>
      <trkpt lat="46.2372" lon="6.70255">
        <ele>2059</ele>
        <time>2022-02-12T12:08:56Z</time>
      </trkpt>
      <trkpt lat="46.2372" lon="6.70264">
        <ele>2060</ele>
        <time>2022-02-12T12:09:06Z</time>
      </trkpt>
      <trkpt lat="46.23721" lon="6.70271">
        <ele>2062</ele>
        <time>2022-02-12T12:09:19Z</time>
      </trkpt>
      <trkpt lat="46.23722" lon="6.7028">
        <ele>2063</ele>
        <time>2022-02-12T12:09:37Z</time>
      </trkpt>
      <trkpt lat="46.23719" lon="6.70288">
        <ele>2066</ele>
        <time>2022-02-12T12:09:51Z</time>
      </trkpt>
      <trkpt lat="46.2372" lon="6.70298">
        <ele>2070</ele>
        <time>2022-02-12T12:10:10Z</time>
      </trkpt>
      <trkpt lat="46.23723" lon="6.70305">
        <ele>2070</ele>
        <time>2022-02-12T12:10:22Z</time>
      </trkpt>
      <trkpt lat="46.23728" lon="6.70308">
        <ele>2072</ele>
        <time>2022-02-12T12:10:39Z</time>
      </trkpt>
      <trkpt lat="46.23727" lon="6.70317">
        <ele>2073</ele>
        <time>2022-02-12T12:11:12Z</time>
      </trkpt>
      <trkpt lat="46.23724" lon="6.70324">
        <ele>2075</ele>
        <time>2022-02-12T12:11:27Z</time>
      </trkpt>
      <trkpt lat="46.23725" lon="6.70331">
        <ele>2080</ele>
        <time>2022-02-12T12:12:33Z</time>
      </trkpt>
      <trkpt lat="46.23722" lon="6.70337">
        <ele>2081</ele>
        <time>2022-02-12T12:12:55Z</time>
      </trkpt>
      <trkpt lat="46.23721" lon="6.70342">
        <ele>2085</ele>
        <time>2022-02-12T12:13:14Z</time>
      </trkpt>
      <trkpt lat="46.23716" lon="6.70341">
        <ele>2086</ele>
        <time>2022-02-12T12:13:40Z</time>
      </trkpt>
      <trkpt lat="46.23713" lon="6.70348">
        <ele>2087</ele>
        <time>2022-02-12T12:14:02Z</time>
      </trkpt>
      <trkpt lat="46.23713" lon="6.70358">
        <ele>2092</ele>
        <time>2022-02-12T12:14:19Z</time>
      </trkpt>
      <trkpt lat="46.23713" lon="6.70368">
        <ele>2095</ele>
        <time>2022-02-12T12:14:37Z</time>
      </trkpt>
      <trkpt lat="46.23712" lon="6.70376">
        <ele>2096</ele>
        <time>2022-02-12T12:14:49Z</time>
      </trkpt>
      <trkpt lat="46.23711" lon="6.70385">
        <ele>2099</ele>
        <time>2022-02-12T12:15:03Z</time>
      </trkpt>
      <trkpt lat="46.23709" lon="6.70395">
        <ele>2100</ele>
        <time>2022-02-12T12:15:24Z</time>
      </trkpt>
      <trkpt lat="46.23708" lon="6.70406">
        <ele>2103</ele>
        <time>2022-02-12T12:15:45Z</time>
      </trkpt>
      <trkpt lat="46.23714" lon="6.70403">
        <ele>2104</ele>
        <time>2022-02-12T12:16:07Z</time>
      </trkpt>
      <trkpt lat="46.23719" lon="6.70399">
        <ele>2104</ele>
        <time>2022-02-12T12:16:21Z</time>
      </trkpt>
      <trkpt lat="46.23724" lon="6.70395">
        <ele>2108</ele>
        <time>2022-02-12T12:16:28Z</time>
      </trkpt>
      <trkpt lat="46.23727" lon="6.70394">
        <ele>2109</ele>
        <time>2022-02-12T12:16:35Z</time>
      </trkpt>
      <trkpt lat="46.23727" lon="6.70401">
        <ele>2111</ele>
        <time>2022-02-12T12:16:57Z</time>
      </trkpt>
      <trkpt lat="46.23724" lon="6.70418">
        <ele>2116</ele>
        <time>2022-02-12T12:17:26Z</time>
      </trkpt>
      <trkpt lat="46.23725" lon="6.70426">
        <ele>2119</ele>
        <time>2022-02-12T12:17:52Z</time>
      </trkpt>
      <trkpt lat="46.2372" lon="6.70431">
        <ele>2120</ele>
        <time>2022-02-12T12:18:11Z</time>
      </trkpt>
      <trkpt lat="46.2371" lon="6.70437">
        <ele>2123</ele>
        <time>2022-02-12T12:18:42Z</time>
      </trkpt>
      <trkpt lat="46.23707" lon="6.70443">
        <ele>2125</ele>
        <time>2022-02-12T12:18:51Z</time>
      </trkpt>
      <trkpt lat="46.23702" lon="6.70448">
        <ele>2125</ele>
        <time>2022-02-12T12:19:05Z</time>
      </trkpt>
      <trkpt lat="46.23702" lon="6.70453">
        <ele>2127</ele>
        <time>2022-02-12T12:20:05Z</time>
      </trkpt>
      <trkpt lat="46.23693" lon="6.70455">
        <ele>2129</ele>
        <time>2022-02-12T12:20:53Z</time>
      </trkpt>
      <trkpt lat="46.23693" lon="6.70453">
        <ele>2129</ele>
        <time>2022-02-12T12:21:55Z</time>
      </trkpt>
      <trkpt lat="46.23689" lon="6.70458">
        <ele>2129</ele>
        <time>2022-02-12T12:22:54Z</time>
      </trkpt>
      <trkpt lat="46.23685" lon="6.70466">
        <ele>2129</ele>
        <time>2022-02-12T12:23:05Z</time>
      </trkpt>
      <trkpt lat="46.23676" lon="6.70476">
        <ele>2130</ele>
        <time>2022-02-12T12:23:24Z</time>
      </trkpt>
      <trkpt lat="46.23672" lon="6.70482">
        <ele>2130</ele>
        <time>2022-02-12T12:23:32Z</time>
      </trkpt>
      <trkpt lat="46.23667" lon="6.70485">
        <ele>2130</ele>
        <time>2022-02-12T12:23:41Z</time>
      </trkpt>
      <trkpt lat="46.23662" lon="6.70485">
        <ele>2130</ele>
        <time>2022-02-12T12:23:58Z</time>
      </trkpt>
      <trkpt lat="46.23658" lon="6.70493">
        <ele>2130</ele>
        <time>2022-02-12T12:24:26Z</time>
      </trkpt>
      <trkpt lat="46.23653" lon="6.70491">
        <ele>2126</ele>
        <time>2022-02-12T12:24:55Z</time>
      </trkpt>
      <trkpt lat="46.23648" lon="6.70487">
        <ele>2126</ele>
        <time>2022-02-12T12:25:07Z</time>
      </trkpt>
      <trkpt lat="46.23643" lon="6.70493">
        <ele>2125</ele>
        <time>2022-02-12T12:25:34Z</time>
      </trkpt>
      <trkpt lat="46.23631" lon="6.70494">
        <ele>2125</ele>
        <time>2022-02-12T12:26:12Z</time>
      </trkpt>
      <trkpt lat="46.23628" lon="6.70503">
        <ele>2126</ele>
        <time>2022-02-12T12:39:41Z</time>
      </trkpt>
      <trkpt lat="46.23627" lon="6.70515">
        <ele>2126</ele>
        <time>2022-02-12T12:40:18Z</time>
      </trkpt>
      <trkpt lat="46.23621" lon="6.70527">
        <ele>2139</ele>
        <time>2022-02-12T12:41:52Z</time>
      </trkpt>
      <trkpt lat="46.23617" lon="6.70525">
        <ele>2149</ele>
        <time>2022-02-12T12:45:17Z</time>
      </trkpt>
      <trkpt lat="46.23613" lon="6.70522">
        <ele>2154</ele>
        <time>2022-02-12T12:45:36Z</time>
      </trkpt>
      <trkpt lat="46.23609" lon="6.70523">
        <ele>2157</ele>
        <time>2022-02-12T12:49:28Z</time>
      </trkpt>
      <trkpt lat="46.23605" lon="6.70525">
        <ele>2162</ele>
        <time>2022-02-12T13:06:03Z</time>
      </trkpt>
      <trkpt lat="46.23598" lon="6.70533">
        <ele>2165</ele>
        <time>2022-02-12T13:06:37Z</time>
      </trkpt>
      <trkpt lat="46.23594" lon="6.70535">
        <ele>2165</ele>
        <time>2022-02-12T13:06:48Z</time>
      </trkpt>
      <trkpt lat="46.23598" lon="6.70547">
        <ele>2163</ele>
        <time>2022-02-12T13:09:26Z</time>
      </trkpt>
      <trkpt lat="46.23595" lon="6.70556">
        <ele>2160</ele>
        <time>2022-02-12T13:12:06Z</time>
      </trkpt>
      <trkpt lat="46.23596" lon="6.70566">
        <ele>2160</ele>
        <time>2022-02-12T13:12:09Z</time>
      </trkpt>
      <trkpt lat="46.23604" lon="6.70564">
        <ele>2159</ele>
        <time>2022-02-12T13:12:13Z</time>
      </trkpt>
      <trkpt lat="46.23612" lon="6.70566">
        <ele>2157</ele>
        <time>2022-02-12T13:12:19Z</time>
      </trkpt>
      <trkpt lat="46.23621" lon="6.70564">
        <ele>2155</ele>
        <time>2022-02-12T13:12:22Z</time>
      </trkpt>
      <trkpt lat="46.23628" lon="6.70565">
        <ele>2152</ele>
        <time>2022-02-12T13:12:41Z</time>
      </trkpt>
      <trkpt lat="46.23626" lon="6.7056">
        <ele>2150</ele>
        <time>2022-02-12T13:13:16Z</time>
      </trkpt>
      <trkpt lat="46.23633" lon="6.70562">
        <ele>2149</ele>
        <time>2022-02-12T13:13:48Z</time>
      </trkpt>
      <trkpt lat="46.23643" lon="6.70556">
        <ele>2141</ele>
        <time>2022-02-12T13:13:53Z</time>
      </trkpt>
      <trkpt lat="46.23639" lon="6.70549">
        <ele>2135</ele>
        <time>2022-02-12T13:14:10Z</time>
      </trkpt>
      <trkpt lat="46.23662" lon="6.70535">
        <ele>2129</ele>
        <time>2022-02-12T13:14:25Z</time>
      </trkpt>
      <trkpt lat="46.2367" lon="6.70532">
        <ele>2126</ele>
        <time>2022-02-12T13:14:30Z</time>
      </trkpt>
      <trkpt lat="46.23674" lon="6.70536">
        <ele>2124</ele>
        <time>2022-02-12T13:14:37Z</time>
      </trkpt>
      <trkpt lat="46.2368" lon="6.70548">
        <ele>2122</ele>
        <time>2022-02-12T13:14:49Z</time>
      </trkpt>
      <trkpt lat="46.23683" lon="6.70557">
        <ele>2119</ele>
        <time>2022-02-12T13:14:58Z</time>
      </trkpt>
      <trkpt lat="46.23689" lon="6.70563">
        <ele>2116</ele>
        <time>2022-02-12T13:15:16Z</time>
      </trkpt>
      <trkpt lat="46.23692" lon="6.70571">
        <ele>2110</ele>
        <time>2022-02-12T13:15:19Z</time>
      </trkpt>
      <trkpt lat="46.23689" lon="6.70578">
        <ele>2106</ele>
        <time>2022-02-12T13:15:38Z</time>
      </trkpt>
      <trkpt lat="46.23699" lon="6.70578">
        <ele>2101</ele>
        <time>2022-02-12T13:16:07Z</time>
      </trkpt>
      <trkpt lat="46.23702" lon="6.70574">
        <ele>2100</ele>
        <time>2022-02-12T13:16:15Z</time>
      </trkpt>
      <trkpt lat="46.23697" lon="6.70569">
        <ele>2099</ele>
        <time>2022-02-12T13:16:32Z</time>
      </trkpt>
      <trkpt lat="46.23696" lon="6.70577">
        <ele>2099</ele>
        <time>2022-02-12T13:17:01Z</time>
      </trkpt>
      <trkpt lat="46.23704" lon="6.70576">
        <ele>2098</ele>
        <time>2022-02-12T13:17:34Z</time>
      </trkpt>
      <trkpt lat="46.23707" lon="6.70588">
        <ele>2098</ele>
        <time>2022-02-12T13:17:37Z</time>
      </trkpt>
      <trkpt lat="46.23705" lon="6.70598">
        <ele>2094</ele>
        <time>2022-02-12T13:17:44Z</time>
      </trkpt>
      <trkpt lat="46.2371" lon="6.70606">
        <ele>2091</ele>
        <time>2022-02-12T13:17:49Z</time>
      </trkpt>
      <trkpt lat="46.23718" lon="6.70604">
        <ele>2089</ele>
        <time>2022-02-12T13:17:52Z</time>
      </trkpt>
      <trkpt lat="46.23718" lon="6.70623">
        <ele>2073</ele>
        <time>2022-02-12T13:18:27Z</time>
      </trkpt>
      <trkpt lat="46.23714" lon="6.70629">
        <ele>2071</ele>
        <time>2022-02-12T13:18:30Z</time>
      </trkpt>
      <trkpt lat="46.23715" lon="6.70641">
        <ele>2069</ele>
        <time>2022-02-12T13:18:36Z</time>
      </trkpt>
      <trkpt lat="46.2372" lon="6.70647">
        <ele>2068</ele>
        <time>2022-02-12T13:18:38Z</time>
      </trkpt>
      <trkpt lat="46.23727" lon="6.70649">
        <ele>2066</ele>
        <time>2022-02-12T13:18:42Z</time>
      </trkpt>
      <trkpt lat="46.23742" lon="6.70645">
        <ele>2056</ele>
        <time>2022-02-12T13:19:01Z</time>
      </trkpt>
      <trkpt lat="46.23748" lon="6.70654">
        <ele>2053</ele>
        <time>2022-02-12T13:19:14Z</time>
      </trkpt>
      <trkpt lat="46.2375" lon="6.70665">
        <ele>2046</ele>
        <time>2022-02-12T13:19:16Z</time>
      </trkpt>
      <trkpt lat="46.23753" lon="6.70672">
        <ele>2041</ele>
        <time>2022-02-12T13:19:18Z</time>
      </trkpt>
      <trkpt lat="46.23759" lon="6.70688">
        <ele>2035</ele>
        <time>2022-02-12T13:19:22Z</time>
      </trkpt>
      <trkpt lat="46.23762" lon="6.70702">
        <ele>2027</ele>
        <time>2022-02-12T13:19:24Z</time>
      </trkpt>
      <trkpt lat="46.23765" lon="6.70699">
        <ele>2015</ele>
        <time>2022-02-12T13:20:13Z</time>
      </trkpt>
      <trkpt lat="46.2377" lon="6.70705">
        <ele>2012</ele>
        <time>2022-02-12T13:21:09Z</time>
      </trkpt>
      <trkpt lat="46.23777" lon="6.70708">
        <ele>2007</ele>
        <time>2022-02-12T13:21:15Z</time>
      </trkpt>
      <trkpt lat="46.23781" lon="6.70719">
        <ele>2004</ele>
        <time>2022-02-12T13:21:18Z</time>
      </trkpt>
      <trkpt lat="46.23784" lon="6.70728">
        <ele>1999</ele>
        <time>2022-02-12T13:21:20Z</time>
      </trkpt>
      <trkpt lat="46.23789" lon="6.70737">
        <ele>1995</ele>
        <time>2022-02-12T13:21:22Z</time>
      </trkpt>
      <trkpt lat="46.23795" lon="6.70745">
        <ele>1993</ele>
        <time>2022-02-12T13:21:25Z</time>
      </trkpt>
      <trkpt lat="46.23799" lon="6.70757">
        <ele>1990</ele>
        <time>2022-02-12T13:21:28Z</time>
      </trkpt>
      <trkpt lat="46.23803" lon="6.70768">
        <ele>1988</ele>
        <time>2022-02-12T13:21:30Z</time>
      </trkpt>
      <trkpt lat="46.23808" lon="6.70784">
        <ele>1980</ele>
        <time>2022-02-12T13:21:34Z</time>
      </trkpt>
      <trkpt lat="46.23826" lon="6.7086">
        <ele>1954</ele>
        <time>2022-02-12T13:21:47Z</time>
      </trkpt>
      <trkpt lat="46.23827" lon="6.70872">
        <ele>1951</ele>
        <time>2022-02-12T13:21:49Z</time>
      </trkpt>
      <trkpt lat="46.23824" lon="6.70907">
        <ele>1948</ele>
        <time>2022-02-12T13:21:58Z</time>
      </trkpt>
      <trkpt lat="46.23823" lon="6.70899">
        <ele>1947</ele>
        <time>2022-02-12T13:23:22Z</time>
      </trkpt>
      <trkpt lat="46.23818" lon="6.70888">
        <ele>1947</ele>
        <time>2022-02-12T13:23:25Z</time>
      </trkpt>
      <trkpt lat="46.23809" lon="6.70879">
        <ele>1941</ele>
        <time>2022-02-12T13:23:28Z</time>
      </trkpt>
      <trkpt lat="46.238" lon="6.70892">
        <ele>1937</ele>
        <time>2022-02-12T13:23:51Z</time>
      </trkpt>
      <trkpt lat="46.23796" lon="6.70919">
        <ele>1920</ele>
        <time>2022-02-12T13:23:55Z</time>
      </trkpt>
      <trkpt lat="46.23791" lon="6.70927">
        <ele>1913</ele>
        <time>2022-02-12T13:24:42Z</time>
      </trkpt>
      <trkpt lat="46.23786" lon="6.70936">
        <ele>1913</ele>
        <time>2022-02-12T13:24:44Z</time>
      </trkpt>
      <trkpt lat="46.23782" lon="6.70949">
        <ele>1913</ele>
        <time>2022-02-12T13:24:46Z</time>
      </trkpt>
      <trkpt lat="46.23777" lon="6.70967">
        <ele>1911</ele>
        <time>2022-02-12T13:24:49Z</time>
      </trkpt>
      <trkpt lat="46.23774" lon="6.70979">
        <ele>1909</ele>
        <time>2022-02-12T13:24:51Z</time>
      </trkpt>
      <trkpt lat="46.23768" lon="6.70993">
        <ele>1906</ele>
        <time>2022-02-12T13:24:54Z</time>
      </trkpt>
      <trkpt lat="46.23768" lon="6.71003">
        <ele>1902</ele>
        <time>2022-02-12T13:24:56Z</time>
      </trkpt>
      <trkpt lat="46.23769" lon="6.71016">
        <ele>1900</ele>
        <time>2022-02-12T13:24:59Z</time>
      </trkpt>
      <trkpt lat="46.23767" lon="6.71029">
        <ele>1896</ele>
        <time>2022-02-12T13:25:01Z</time>
      </trkpt>
      <trkpt lat="46.23764" lon="6.71042">
        <ele>1893</ele>
        <time>2022-02-12T13:25:03Z</time>
      </trkpt>
      <trkpt lat="46.23762" lon="6.71057">
        <ele>1889</ele>
        <time>2022-02-12T13:25:05Z</time>
      </trkpt>
      <trkpt lat="46.23755" lon="6.71074">
        <ele>1886</ele>
        <time>2022-02-12T13:25:08Z</time>
      </trkpt>
      <trkpt lat="46.2375" lon="6.71087">
        <ele>1882</ele>
        <time>2022-02-12T13:25:11Z</time>
      </trkpt>
      <trkpt lat="46.23752" lon="6.71099">
        <ele>1880</ele>
        <time>2022-02-12T13:25:24Z</time>
      </trkpt>
      <trkpt lat="46.23748" lon="6.71108">
        <ele>1876</ele>
        <time>2022-02-12T13:25:26Z</time>
      </trkpt>
      <trkpt lat="46.23744" lon="6.71119">
        <ele>1874</ele>
        <time>2022-02-12T13:25:28Z</time>
      </trkpt>
      <trkpt lat="46.2374" lon="6.71131">
        <ele>1869</ele>
        <time>2022-02-12T13:25:30Z</time>
      </trkpt>
      <trkpt lat="46.23736" lon="6.71144">
        <ele>1866</ele>
        <time>2022-02-12T13:25:32Z</time>
      </trkpt>
      <trkpt lat="46.23731" lon="6.71155">
        <ele>1860</ele>
        <time>2022-02-12T13:25:34Z</time>
      </trkpt>
      <trkpt lat="46.23726" lon="6.7117">
        <ele>1857</ele>
        <time>2022-02-12T13:25:36Z</time>
      </trkpt>
      <trkpt lat="46.23721" lon="6.71178">
        <ele>1853</ele>
        <time>2022-02-12T13:25:39Z</time>
      </trkpt>
      <trkpt lat="46.23719" lon="6.71185">
        <ele>1851</ele>
        <time>2022-02-12T13:26:59Z</time>
      </trkpt>
      <trkpt lat="46.23718" lon="6.71196">
        <ele>1848</ele>
        <time>2022-02-12T13:27:01Z</time>
      </trkpt>
      <trkpt lat="46.2372" lon="6.7121">
        <ele>1845</ele>
        <time>2022-02-12T13:27:03Z</time>
      </trkpt>
      <trkpt lat="46.23722" lon="6.71227">
        <ele>1842</ele>
        <time>2022-02-12T13:27:05Z</time>
      </trkpt>
      <trkpt lat="46.23723" lon="6.71251">
        <ele>1839</ele>
        <time>2022-02-12T13:27:08Z</time>
      </trkpt>
      <trkpt lat="46.23725" lon="6.71267">
        <ele>1837</ele>
        <time>2022-02-12T13:27:10Z</time>
      </trkpt>
      <trkpt lat="46.23726" lon="6.71284">
        <ele>1834</ele>
        <time>2022-02-12T13:27:12Z</time>
      </trkpt>
      <trkpt lat="46.23731" lon="6.71299">
        <ele>1833</ele>
        <time>2022-02-12T13:27:14Z</time>
      </trkpt>
      <trkpt lat="46.23732" lon="6.71309">
        <ele>1828</ele>
        <time>2022-02-12T13:27:20Z</time>
      </trkpt>
      <trkpt lat="46.2374" lon="6.71323">
        <ele>1824</ele>
        <time>2022-02-12T13:28:16Z</time>
      </trkpt>
      <trkpt lat="46.23743" lon="6.7135">
        <ele>1822</ele>
        <time>2022-02-12T13:28:25Z</time>
      </trkpt>
      <trkpt lat="46.23742" lon="6.71361">
        <ele>1822</ele>
        <time>2022-02-12T13:28:29Z</time>
      </trkpt>
      <trkpt lat="46.23742" lon="6.71387">
        <ele>1820</ele>
        <time>2022-02-12T13:28:56Z</time>
      </trkpt>
      <trkpt lat="46.23742" lon="6.714">
        <ele>1818</ele>
        <time>2022-02-12T13:28:58Z</time>
      </trkpt>
      <trkpt lat="46.23744" lon="6.71419">
        <ele>1815</ele>
        <time>2022-02-12T13:29:01Z</time>
      </trkpt>
      <trkpt lat="46.23746" lon="6.71444">
        <ele>1811</ele>
        <time>2022-02-12T13:29:05Z</time>
      </trkpt>
      <trkpt lat="46.23744" lon="6.71462">
        <ele>1809</ele>
        <time>2022-02-12T13:29:09Z</time>
      </trkpt>
      <trkpt lat="46.23748" lon="6.71477">
        <ele>1808</ele>
        <time>2022-02-12T13:29:32Z</time>
      </trkpt>
      <trkpt lat="46.23756" lon="6.71494">
        <ele>1804</ele>
        <time>2022-02-12T13:29:35Z</time>
      </trkpt>
      <trkpt lat="46.2376" lon="6.71505">
        <ele>1801</ele>
        <time>2022-02-12T13:29:37Z</time>
      </trkpt>
      <trkpt lat="46.2377" lon="6.71538">
        <ele>1790</ele>
        <time>2022-02-12T13:29:43Z</time>
      </trkpt>
      <trkpt lat="46.23774" lon="6.71551">
        <ele>1787</ele>
        <time>2022-02-12T13:29:45Z</time>
      </trkpt>
      <trkpt lat="46.23776" lon="6.71564">
        <ele>1782</ele>
        <time>2022-02-12T13:29:47Z</time>
      </trkpt>
      <trkpt lat="46.23791" lon="6.71601">
        <ele>1768</ele>
        <time>2022-02-12T13:30:18Z</time>
      </trkpt>
      <trkpt lat="46.23799" lon="6.71615">
        <ele>1763</ele>
        <time>2022-02-12T13:30:20Z</time>
      </trkpt>
      <trkpt lat="46.23819" lon="6.71639">
        <ele>1757</ele>
        <time>2022-02-12T13:30:24Z</time>
      </trkpt>
      <trkpt lat="46.23828" lon="6.71657">
        <ele>1752</ele>
        <time>2022-02-12T13:30:27Z</time>
      </trkpt>
      <trkpt lat="46.23832" lon="6.7167">
        <ele>1748</ele>
        <time>2022-02-12T13:30:29Z</time>
      </trkpt>
      <trkpt lat="46.23838" lon="6.71683">
        <ele>1745</ele>
        <time>2022-02-12T13:30:31Z</time>
      </trkpt>
      <trkpt lat="46.23838" lon="6.71695">
        <ele>1741</ele>
        <time>2022-02-12T13:30:33Z</time>
      </trkpt>
      <trkpt lat="46.23847" lon="6.71705">
        <ele>1738</ele>
        <time>2022-02-12T13:30:36Z</time>
      </trkpt>
      <trkpt lat="46.23851" lon="6.71717">
        <ele>1733</ele>
        <time>2022-02-12T13:30:38Z</time>
      </trkpt>
      <trkpt lat="46.23859" lon="6.71731">
        <ele>1728</ele>
        <time>2022-02-12T13:30:41Z</time>
      </trkpt>
      <trkpt lat="46.23867" lon="6.71738">
        <ele>1723</ele>
        <time>2022-02-12T13:30:59Z</time>
      </trkpt>
      <trkpt lat="46.23876" lon="6.7175">
        <ele>1723</ele>
        <time>2022-02-12T13:31:02Z</time>
      </trkpt>
      <trkpt lat="46.23882" lon="6.71775">
        <ele>1714</ele>
        <time>2022-02-12T13:31:06Z</time>
      </trkpt>
      <trkpt lat="46.23889" lon="6.71803">
        <ele>1708</ele>
        <time>2022-02-12T13:31:10Z</time>
      </trkpt>
      <trkpt lat="46.23903" lon="6.71822">
        <ele>1704</ele>
        <time>2022-02-12T13:31:14Z</time>
      </trkpt>
      <trkpt lat="46.2391" lon="6.71834">
        <ele>1703</ele>
        <time>2022-02-12T13:31:16Z</time>
      </trkpt>
      <trkpt lat="46.23913" lon="6.71859">
        <ele>1699</ele>
        <time>2022-02-12T13:31:20Z</time>
      </trkpt>
      <trkpt lat="46.23916" lon="6.71883">
        <ele>1697</ele>
        <time>2022-02-12T13:31:24Z</time>
      </trkpt>
      <trkpt lat="46.23919" lon="6.71897">
        <ele>1696</ele>
        <time>2022-02-12T13:31:28Z</time>
      </trkpt>
      <trkpt lat="46.23943" lon="6.71911">
        <ele>1696</ele>
        <time>2022-02-12T13:31:40Z</time>
      </trkpt>
      <trkpt lat="46.23949" lon="6.71917">
        <ele>1695</ele>
        <time>2022-02-12T13:31:59Z</time>
      </trkpt>
      <trkpt lat="46.23971" lon="6.71927">
        <ele>1694</ele>
        <time>2022-02-12T13:32:12Z</time>
      </trkpt>
      <trkpt lat="46.23987" lon="6.71929">
        <ele>1693</ele>
        <time>2022-02-12T13:32:21Z</time>
      </trkpt>
      <trkpt lat="46.24007" lon="6.71931">
        <ele>1693</ele>
        <time>2022-02-12T13:32:46Z</time>
      </trkpt>
      <trkpt lat="46.24011" lon="6.71941">
        <ele>1688</ele>
        <time>2022-02-12T13:34:19Z</time>
      </trkpt>
      <trkpt lat="46.24003" lon="6.71953">
        <ele>1686</ele>
        <time>2022-02-12T13:35:18Z</time>
      </trkpt>
      <trkpt lat="46.2401" lon="6.7196">
        <ele>1684</ele>
        <time>2022-02-12T14:01:26Z</time>
      </trkpt>
      <trkpt lat="46.2402" lon="6.71966">
        <ele>1684</ele>
        <time>2022-02-12T14:01:46Z</time>
      </trkpt>
      <trkpt lat="46.2402" lon="6.71956">
        <ele>1686</ele>
        <time>2022-02-12T14:03:52Z</time>
      </trkpt>
      <trkpt lat="46.24015" lon="6.7194">
        <ele>1687</ele>
        <time>2022-02-12T14:03:57Z</time>
      </trkpt>
      <trkpt lat="46.24008" lon="6.71935">
        <ele>1688</ele>
        <time>2022-02-12T14:04:01Z</time>
      </trkpt>
      <trkpt lat="46.24004" lon="6.71923">
        <ele>1690</ele>
        <time>2022-02-12T14:04:29Z</time>
      </trkpt>
      <trkpt lat="46.24002" lon="6.71911">
        <ele>1689</ele>
        <time>2022-02-12T14:04:33Z</time>
      </trkpt>
      <trkpt lat="46.24012" lon="6.71912">
        <ele>1689</ele>
        <time>2022-02-12T14:04:37Z</time>
      </trkpt>
      <trkpt lat="46.24048" lon="6.71918">
        <ele>1686</ele>
        <time>2022-02-12T14:05:00Z</time>
      </trkpt>
      <trkpt lat="46.24052" lon="6.719">
        <ele>1685</ele>
        <time>2022-02-12T14:05:03Z</time>
      </trkpt>
      <trkpt lat="46.24054" lon="6.71887">
        <ele>1680</ele>
        <time>2022-02-12T14:05:10Z</time>
      </trkpt>
      <trkpt lat="46.24053" lon="6.71874">
        <ele>1677</ele>
        <time>2022-02-12T14:05:16Z</time>
      </trkpt>
      <trkpt lat="46.24062" lon="6.71869">
        <ele>1676</ele>
        <time>2022-02-12T14:05:20Z</time>
      </trkpt>
      <trkpt lat="46.24064" lon="6.71859">
        <ele>1671</ele>
        <time>2022-02-12T14:05:22Z</time>
      </trkpt>
      <trkpt lat="46.24067" lon="6.71846">
        <ele>1668</ele>
        <time>2022-02-12T14:05:24Z</time>
      </trkpt>
      <trkpt lat="46.24072" lon="6.71834">
        <ele>1662</ele>
        <time>2022-02-12T14:05:26Z</time>
      </trkpt>
      <trkpt lat="46.24077" lon="6.71826">
        <ele>1659</ele>
        <time>2022-02-12T14:05:28Z</time>
      </trkpt>
      <trkpt lat="46.24085" lon="6.71822">
        <ele>1657</ele>
        <time>2022-02-12T14:05:31Z</time>
      </trkpt>
      <trkpt lat="46.24094" lon="6.71819">
        <ele>1656</ele>
        <time>2022-02-12T14:05:34Z</time>
      </trkpt>
      <trkpt lat="46.24103" lon="6.71811">
        <ele>1655</ele>
        <time>2022-02-12T14:05:41Z</time>
      </trkpt>
      <trkpt lat="46.24108" lon="6.71802">
        <ele>1654</ele>
        <time>2022-02-12T14:05:44Z</time>
      </trkpt>
      <trkpt lat="46.24117" lon="6.71797">
        <ele>1654</ele>
        <time>2022-02-12T14:06:03Z</time>
      </trkpt>
      <trkpt lat="46.24131" lon="6.71799">
        <ele>1652</ele>
        <time>2022-02-12T14:06:07Z</time>
      </trkpt>
      <trkpt lat="46.24131" lon="6.71786">
        <ele>1646</ele>
        <time>2022-02-12T14:06:45Z</time>
      </trkpt>
      <trkpt lat="46.24136" lon="6.71778">
        <ele>1637</ele>
        <time>2022-02-12T14:06:52Z</time>
      </trkpt>
      <trkpt lat="46.24138" lon="6.71765">
        <ele>1634</ele>
        <time>2022-02-12T14:06:57Z</time>
      </trkpt>
      <trkpt lat="46.24144" lon="6.71755">
        <ele>1630</ele>
        <time>2022-02-12T14:07:02Z</time>
      </trkpt>
      <trkpt lat="46.24147" lon="6.7174">
        <ele>1628</ele>
        <time>2022-02-12T14:07:17Z</time>
      </trkpt>
      <trkpt lat="46.24154" lon="6.71741">
        <ele>1623</ele>
        <time>2022-02-12T14:07:43Z</time>
      </trkpt>
      <trkpt lat="46.24163" lon="6.71764">
        <ele>1617</ele>
        <time>2022-02-12T14:07:58Z</time>
      </trkpt>
      <trkpt lat="46.24171" lon="6.71764">
        <ele>1615</ele>
        <time>2022-02-12T14:08:01Z</time>
      </trkpt>
      <trkpt lat="46.24174" lon="6.71771">
        <ele>1613</ele>
        <time>2022-02-12T14:08:06Z</time>
      </trkpt>
      <trkpt lat="46.2418" lon="6.71755">
        <ele>1605</ele>
        <time>2022-02-12T14:08:29Z</time>
      </trkpt>
      <trkpt lat="46.24181" lon="6.71744">
        <ele>1598</ele>
        <time>2022-02-12T14:09:46Z</time>
      </trkpt>
      <trkpt lat="46.24182" lon="6.71725">
        <ele>1590</ele>
        <time>2022-02-12T14:10:40Z</time>
      </trkpt>
      <trkpt lat="46.24183" lon="6.71713">
        <ele>1587</ele>
        <time>2022-02-12T14:10:45Z</time>
      </trkpt>
      <trkpt lat="46.24191" lon="6.71713">
        <ele>1584</ele>
        <time>2022-02-12T14:10:52Z</time>
      </trkpt>
      <trkpt lat="46.24201" lon="6.71717">
        <ele>1579</ele>
        <time>2022-02-12T14:11:30Z</time>
      </trkpt>
      <trkpt lat="46.24213" lon="6.71702">
        <ele>1574</ele>
        <time>2022-02-12T14:11:53Z</time>
      </trkpt>
      <trkpt lat="46.24217" lon="6.71712">
        <ele>1569</ele>
        <time>2022-02-12T14:12:15Z</time>
      </trkpt>
      <trkpt lat="46.24229" lon="6.71709">
        <ele>1567</ele>
        <time>2022-02-12T14:13:00Z</time>
      </trkpt>
      <trkpt lat="46.24241" lon="6.7172">
        <ele>1563</ele>
        <time>2022-02-12T14:13:04Z</time>
      </trkpt>
      <trkpt lat="46.24248" lon="6.7171">
        <ele>1561</ele>
        <time>2022-02-12T14:13:08Z</time>
      </trkpt>
      <trkpt lat="46.24259" lon="6.7171">
        <ele>1560</ele>
        <time>2022-02-12T14:13:12Z</time>
      </trkpt>
      <trkpt lat="46.24271" lon="6.71703">
        <ele>1551</ele>
        <time>2022-02-12T14:13:47Z</time>
      </trkpt>
      <trkpt lat="46.24285" lon="6.71704">
        <ele>1539</ele>
        <time>2022-02-12T14:13:52Z</time>
      </trkpt>
      <trkpt lat="46.24286" lon="6.71714">
        <ele>1526</ele>
        <time>2022-02-12T14:14:26Z</time>
      </trkpt>
      <trkpt lat="46.24285" lon="6.71727">
        <ele>1520</ele>
        <time>2022-02-12T14:14:39Z</time>
      </trkpt>
      <trkpt lat="46.24291" lon="6.71736">
        <ele>1516</ele>
        <time>2022-02-12T14:15:05Z</time>
      </trkpt>
      <trkpt lat="46.24294" lon="6.71728">
        <ele>1506</ele>
        <time>2022-02-12T14:17:13Z</time>
      </trkpt>
      <trkpt lat="46.24292" lon="6.71713">
        <ele>1504</ele>
        <time>2022-02-12T14:18:02Z</time>
      </trkpt>
      <trkpt lat="46.24292" lon="6.71703">
        <ele>1485</ele>
        <time>2022-02-12T14:19:51Z</time>
      </trkpt>
      <trkpt lat="46.24294" lon="6.71692">
        <ele>1481</ele>
        <time>2022-02-12T14:20:02Z</time>
      </trkpt>
      <trkpt lat="46.24293" lon="6.71666">
        <ele>1476</ele>
        <time>2022-02-12T14:20:21Z</time>
      </trkpt>
      <trkpt lat="46.24299" lon="6.71652">
        <ele>1471</ele>
        <time>2022-02-12T14:20:31Z</time>
      </trkpt>
      <trkpt lat="46.24312" lon="6.71638">
        <ele>1467</ele>
        <time>2022-02-12T14:21:59Z</time>
      </trkpt>
      <trkpt lat="46.24319" lon="6.71618">
        <ele>1458</ele>
        <time>2022-02-12T14:22:17Z</time>
      </trkpt>
      <trkpt lat="46.24318" lon="6.71597">
        <ele>1453</ele>
        <time>2022-02-12T14:22:34Z</time>
      </trkpt>
      <trkpt lat="46.24328" lon="6.71584">
        <ele>1449</ele>
        <time>2022-02-12T14:22:41Z</time>
      </trkpt>
      <trkpt lat="46.24336" lon="6.71571">
        <ele>1448</ele>
        <time>2022-02-12T14:22:47Z</time>
      </trkpt>
      <trkpt lat="46.24341" lon="6.7155">
        <ele>1446</ele>
        <time>2022-02-12T14:23:10Z</time>
      </trkpt>
      <trkpt lat="46.24351" lon="6.71532">
        <ele>1440</ele>
        <time>2022-02-12T14:23:14Z</time>
      </trkpt>
      <trkpt lat="46.24366" lon="6.71524">
        <ele>1436</ele>
        <time>2022-02-12T14:23:22Z</time>
      </trkpt>
      <trkpt lat="46.24377" lon="6.71508">
        <ele>1434</ele>
        <time>2022-02-12T14:23:27Z</time>
      </trkpt>
      <trkpt lat="46.24383" lon="6.71488">
        <ele>1434</ele>
        <time>2022-02-12T14:23:45Z</time>
      </trkpt>
      <trkpt lat="46.24406" lon="6.71456">
        <ele>1433</ele>
        <time>2022-02-12T14:24:02Z</time>
      </trkpt>
      <trkpt lat="46.24422" lon="6.71448">
        <ele>1431</ele>
        <time>2022-02-12T14:24:09Z</time>
      </trkpt>
      <trkpt lat="46.24433" lon="6.71434">
        <ele>1431</ele>
        <time>2022-02-12T14:24:17Z</time>
      </trkpt>
      <trkpt lat="46.24439" lon="6.71414">
        <ele>1430</ele>
        <time>2022-02-12T14:24:30Z</time>
      </trkpt>
      <trkpt lat="46.24448" lon="6.71394">
        <ele>1428</ele>
        <time>2022-02-12T14:24:39Z</time>
      </trkpt>
      <trkpt lat="46.2446" lon="6.71377">
        <ele>1414</ele>
        <time>2022-02-12T14:24:43Z</time>
      </trkpt>
      <trkpt lat="46.24473" lon="6.71362">
        <ele>1411</ele>
        <time>2022-02-12T14:24:47Z</time>
      </trkpt>
      <trkpt lat="46.24494" lon="6.71328">
        <ele>1406</ele>
        <time>2022-02-12T14:24:56Z</time>
      </trkpt>
      <trkpt lat="46.24554" lon="6.71256">
        <ele>1402</ele>
        <time>2022-02-12T14:25:16Z</time>
      </trkpt>
      <trkpt lat="46.24557" lon="6.71262">
        <ele>1397</ele>
        <time>2022-02-12T14:26:37Z</time>
      </trkpt>
      <trkpt lat="46.24568" lon="6.71267">
        <ele>1397</ele>
        <time>2022-02-12T14:26:44Z</time>
      </trkpt>
      <trkpt lat="46.24581" lon="6.71267">
        <ele>1386</ele>
        <time>2022-02-12T14:26:48Z</time>
      </trkpt>
      <trkpt lat="46.24593" lon="6.7126">
        <ele>1382</ele>
        <time>2022-02-12T14:27:00Z</time>
      </trkpt>
      <trkpt lat="46.24604" lon="6.71256">
        <ele>1381</ele>
        <time>2022-02-12T14:27:04Z</time>
      </trkpt>
      <trkpt lat="46.24612" lon="6.71268">
        <ele>1381</ele>
        <time>2022-02-12T14:27:13Z</time>
      </trkpt>
      <trkpt lat="46.24622" lon="6.71275">
        <ele>1379</ele>
        <time>2022-02-12T14:27:20Z</time>
      </trkpt>
      <trkpt lat="46.24632" lon="6.71281">
        <ele>1376</ele>
        <time>2022-02-12T14:27:30Z</time>
      </trkpt>
      <trkpt lat="46.2466" lon="6.71297">
        <ele>1372</ele>
        <time>2022-02-12T14:27:38Z</time>
      </trkpt>
      <trkpt lat="46.2467" lon="6.71314">
        <ele>1370</ele>
        <time>2022-02-12T14:27:59Z</time>
      </trkpt>
      <trkpt lat="46.24663" lon="6.71321">
        <ele>1370</ele>
        <time>2022-02-12T14:28:07Z</time>
      </trkpt>
      <trkpt lat="46.24662" lon="6.71334">
        <ele>1366</ele>
        <time>2022-02-12T14:28:13Z</time>
      </trkpt>
      <trkpt lat="46.24668" lon="6.71344">
        <ele>1362</ele>
        <time>2022-02-12T14:28:29Z</time>
      </trkpt>
      <trkpt lat="46.24678" lon="6.71355">
        <ele>1359</ele>
        <time>2022-02-12T14:28:33Z</time>
      </trkpt>
      <trkpt lat="46.24701" lon="6.71364">
        <ele>1351</ele>
        <time>2022-02-12T14:29:04Z</time>
      </trkpt>
      <trkpt lat="46.24707" lon="6.71369">
        <ele>1351</ele>
        <time>2022-02-12T14:29:13Z</time>
      </trkpt>
      <trkpt lat="46.24701" lon="6.71403">
        <ele>1349</ele>
        <time>2022-02-12T14:29:23Z</time>
      </trkpt>
      <trkpt lat="46.24704" lon="6.71414">
        <ele>1345</ele>
        <time>2022-02-12T14:29:30Z</time>
      </trkpt>
      <trkpt lat="46.24703" lon="6.7143">
        <ele>1345</ele>
        <time>2022-02-12T14:30:13Z</time>
      </trkpt>
      <trkpt lat="46.24698" lon="6.71437">
        <ele>1344</ele>
        <time>2022-02-12T14:30:16Z</time>
      </trkpt>
      <trkpt lat="46.2469" lon="6.71437">
        <ele>1343</ele>
        <time>2022-02-12T14:30:19Z</time>
      </trkpt>
      <trkpt lat="46.24682" lon="6.71442">
        <ele>1342</ele>
        <time>2022-02-12T14:30:23Z</time>
      </trkpt>
      <trkpt lat="46.24673" lon="6.71459">
        <ele>1335</ele>
        <time>2022-02-12T14:30:28Z</time>
      </trkpt>
      <trkpt lat="46.24678" lon="6.71473">
        <ele>1331</ele>
        <time>2022-02-12T14:30:30Z</time>
      </trkpt>
      <trkpt lat="46.24686" lon="6.71485">
        <ele>1328</ele>
        <time>2022-02-12T14:30:43Z</time>
      </trkpt>
      <trkpt lat="46.24684" lon="6.71496">
        <ele>1329</ele>
        <time>2022-02-12T14:30:55Z</time>
      </trkpt>
      <trkpt lat="46.24683" lon="6.71507">
        <ele>1329</ele>
        <time>2022-02-12T14:31:08Z</time>
      </trkpt>
      <trkpt lat="46.24671" lon="6.71508">
        <ele>1327</ele>
        <time>2022-02-12T14:31:13Z</time>
      </trkpt>
      <trkpt lat="46.24669" lon="6.71526">
        <ele>1325</ele>
        <time>2022-02-12T14:31:17Z</time>
      </trkpt>
      <trkpt lat="46.24664" lon="6.71528">
        <ele>1321</ele>
        <time>2022-02-12T14:31:27Z</time>
      </trkpt>
      <trkpt lat="46.24662" lon="6.71547">
        <ele>1320</ele>
        <time>2022-02-12T14:32:26Z</time>
      </trkpt>
      <trkpt lat="46.24657" lon="6.71561">
        <ele>1317</ele>
        <time>2022-02-12T14:32:29Z</time>
      </trkpt>
      <trkpt lat="46.2466" lon="6.71582">
        <ele>1314</ele>
        <time>2022-02-12T14:32:39Z</time>
      </trkpt>
      <trkpt lat="46.24662" lon="6.716">
        <ele>1308</ele>
        <time>2022-02-12T14:32:50Z</time>
      </trkpt>
      <trkpt lat="46.24654" lon="6.71613">
        <ele>1307</ele>
        <time>2022-02-12T14:32:58Z</time>
      </trkpt>
      <trkpt lat="46.24643" lon="6.71627">
        <ele>1304</ele>
        <time>2022-02-12T14:33:25Z</time>
      </trkpt>
      <trkpt lat="46.24628" lon="6.71634">
        <ele>1304</ele>
        <time>2022-02-12T14:33:30Z</time>
      </trkpt>
      <trkpt lat="46.24627" lon="6.71655">
        <ele>1300</ele>
        <time>2022-02-12T14:33:34Z</time>
      </trkpt>
      <trkpt lat="46.24637" lon="6.71668">
        <ele>1294</ele>
        <time>2022-02-12T14:33:38Z</time>
      </trkpt>
      <trkpt lat="46.24645" lon="6.71679">
        <ele>1287</ele>
        <time>2022-02-12T14:33:41Z</time>
      </trkpt>
      <trkpt lat="46.2466" lon="6.7169">
        <ele>1282</ele>
        <time>2022-02-12T14:33:45Z</time>
      </trkpt>
      <trkpt lat="46.24674" lon="6.71705">
        <ele>1273</ele>
        <time>2022-02-12T14:33:49Z</time>
      </trkpt>
      <trkpt lat="46.24688" lon="6.71721">
        <ele>1268</ele>
        <time>2022-02-12T14:33:52Z</time>
      </trkpt>
      <trkpt lat="46.24696" lon="6.71737">
        <ele>1263</ele>
        <time>2022-02-12T14:33:55Z</time>
      </trkpt>
      <trkpt lat="46.24703" lon="6.71752">
        <ele>1258</ele>
        <time>2022-02-12T14:33:58Z</time>
      </trkpt>
      <trkpt lat="46.2471" lon="6.71767">
        <ele>1256</ele>
        <time>2022-02-12T14:34:01Z</time>
      </trkpt>
      <trkpt lat="46.24722" lon="6.71788">
        <ele>1249</ele>
        <time>2022-02-12T14:34:07Z</time>
      </trkpt>
      <trkpt lat="46.24734" lon="6.71808">
        <ele>1240</ele>
        <time>2022-02-12T14:34:12Z</time>
      </trkpt>
      <trkpt lat="46.24747" lon="6.71813">
        <ele>1237</ele>
        <time>2022-02-12T14:34:15Z</time>
      </trkpt>
      <trkpt lat="46.24763" lon="6.71825">
        <ele>1232</ele>
        <time>2022-02-12T14:34:19Z</time>
      </trkpt>
      <trkpt lat="46.24774" lon="6.7184">
        <ele>1225</ele>
        <time>2022-02-12T14:34:50Z</time>
      </trkpt>
      <trkpt lat="46.24787" lon="6.71847">
        <ele>1223</ele>
        <time>2022-02-12T14:34:53Z</time>
      </trkpt>
      <trkpt lat="46.24793" lon="6.7187">
        <ele>1222</ele>
        <time>2022-02-12T14:34:57Z</time>
      </trkpt>
      <trkpt lat="46.24805" lon="6.7189">
        <ele>1216</ele>
        <time>2022-02-12T14:35:02Z</time>
      </trkpt>
      <trkpt lat="46.2481" lon="6.7191">
        <ele>1208</ele>
        <time>2022-02-12T14:35:05Z</time>
      </trkpt>
      <trkpt lat="46.24811" lon="6.71933">
        <ele>1205</ele>
        <time>2022-02-12T14:35:08Z</time>
      </trkpt>
      <trkpt lat="46.24812" lon="6.71955">
        <ele>1202</ele>
        <time>2022-02-12T14:35:11Z</time>
      </trkpt>
      <trkpt lat="46.24809" lon="6.71972">
        <ele>1197</ele>
        <time>2022-02-12T14:35:13Z</time>
      </trkpt>
      <trkpt lat="46.24804" lon="6.71993">
        <ele>1194</ele>
        <time>2022-02-12T14:35:16Z</time>
      </trkpt>
      <trkpt lat="46.24801" lon="6.72011">
        <ele>1191</ele>
        <time>2022-02-12T14:35:19Z</time>
      </trkpt>
      <trkpt lat="46.24797" lon="6.72026">
        <ele>1188</ele>
        <time>2022-02-12T14:35:22Z</time>
      </trkpt>
      <trkpt lat="46.24795" lon="6.72036">
        <ele>1183</ele>
        <time>2022-02-12T14:35:24Z</time>
      </trkpt>
      <trkpt lat="46.24791" lon="6.7205">
        <ele>1181</ele>
        <time>2022-02-12T14:35:26Z</time>
      </trkpt>
      <trkpt lat="46.24788" lon="6.72073">
        <ele>1173</ele>
        <time>2022-02-12T14:35:29Z</time>
      </trkpt>
      <trkpt lat="46.24786" lon="6.72088">
        <ele>1171</ele>
        <time>2022-02-12T14:35:31Z</time>
      </trkpt>
      <trkpt lat="46.2478" lon="6.72109">
        <ele>1165</ele>
        <time>2022-02-12T14:35:34Z</time>
      </trkpt>
      <trkpt lat="46.24782" lon="6.7212">
        <ele>1164</ele>
        <time>2022-02-12T14:35:36Z</time>
      </trkpt>
      <trkpt lat="46.24784" lon="6.72131">
        <ele>1164</ele>
        <time>2022-02-12T14:35:38Z</time>
      </trkpt>
      <trkpt lat="46.24789" lon="6.72152">
        <ele>1161</ele>
        <time>2022-02-12T14:35:41Z</time>
      </trkpt>
      <trkpt lat="46.24797" lon="6.72171">
        <ele>1160</ele>
        <time>2022-02-12T14:35:44Z</time>
      </trkpt>
      <trkpt lat="46.24827" lon="6.72219">
        <ele>1156</ele>
        <time>2022-02-12T14:35:52Z</time>
      </trkpt>
      <trkpt lat="46.24828" lon="6.72227">
        <ele>1159</ele>
        <time>2022-02-12T14:36:32Z</time>
      </trkpt>
      <trkpt lat="46.24835" lon="6.72236">
        <ele>1160</ele>
        <time>2022-02-12T14:36:37Z</time>
      </trkpt>
      <trkpt lat="46.24846" lon="6.72232">
        <ele>1162</ele>
        <time>2022-02-12T14:36:39Z</time>
      </trkpt>
      <trkpt lat="46.24895" lon="6.72232">
        <ele>1162</ele>
        <time>2022-02-12T14:36:53Z</time>
      </trkpt>
      <trkpt lat="46.24904" lon="6.72226">
        <ele>1161</ele>
        <time>2022-02-12T14:36:55Z</time>
      </trkpt>
      <trkpt lat="46.24906" lon="6.72215">
        <ele>1159</ele>
        <time>2022-02-12T14:36:57Z</time>
      </trkpt>
      <trkpt lat="46.24918" lon="6.72201">
        <ele>1159</ele>
        <time>2022-02-12T14:38:13Z</time>
      </trkpt>
      <trkpt lat="46.24945" lon="6.72196">
        <ele>1155</ele>
        <time>2022-02-12T14:38:52Z</time>
      </trkpt>
      <trkpt lat="46.24953" lon="6.72192">
        <ele>1152</ele>
        <time>2022-02-12T14:39:33Z</time>
      </trkpt>
      <trkpt lat="46.24959" lon="6.72194">
        <ele>1148</ele>
        <time>2022-02-12T14:42:25Z</time>
      </trkpt>
    </trkseg>
  </trk>
</gpx>